<?xml version="1.0" encoding="UTF-8" standalone="no" ?>
<gpx xmlns="http://www.topografix.com/GPX/1/1" xmlns:xsi="http://www.w3.org/2001/XMLSchema-instance" xsi:schemaLocation="http://www.topografix.com/GPX/1/1 http://www.topografix.com/GPX/1/1/gpx.xsd" version="1.1" creator="VisuGPX - https://www.visugpx.com">
  <metadata>
    <name>Forêt de Sérénac</name>
    <desc><![CDATA[Forêt de Sérénac, circuit vtt n°3, à pieds]]></desc>
  </metadata>
  <trk>
    <name><![CDATA[Forêt de Sérénac_1]]></name>
    <trkseg>
      <trkpt lat="43.97399" lon="2.33029">
        <ele>368.8</ele>
        <time>2018-03-04T13:16:05Z</time>
      </trkpt>
      <trkpt lat="43.97399" lon="2.33029">
        <ele>368.8</ele>
        <time>2018-03-04T13:16:05Z</time>
      </trkpt>
      <trkpt lat="43.97398" lon="2.33048">
        <ele>380.2</ele>
        <time>2018-03-04T13:17:19Z</time>
      </trkpt>
      <trkpt lat="43.97398" lon="2.33051">
        <ele>381.4</ele>
        <time>2018-03-04T13:17:26Z</time>
      </trkpt>
      <trkpt lat="43.97396" lon="2.33057">
        <ele>381.4</ele>
        <time>2018-03-04T13:17:33Z</time>
      </trkpt>
      <trkpt lat="43.97391" lon="2.33066">
        <ele>380.7</ele>
        <time>2018-03-04T13:17:39Z</time>
      </trkpt>
      <trkpt lat="43.97391" lon="2.33071">
        <ele>380.4</ele>
        <time>2018-03-04T13:17:46Z</time>
      </trkpt>
      <trkpt lat="43.97396" lon="2.33064">
        <ele>379.3</ele>
        <time>2018-03-04T13:17:53Z</time>
      </trkpt>
      <trkpt lat="43.97403" lon="2.3306">
        <ele>378.2</ele>
        <time>2018-03-04T13:17:59Z</time>
      </trkpt>
      <trkpt lat="43.9741" lon="2.33053">
        <ele>377.9</ele>
        <time>2018-03-04T13:18:06Z</time>
      </trkpt>
      <trkpt lat="43.97418" lon="2.33049">
        <ele>378.2</ele>
        <time>2018-03-04T13:18:13Z</time>
      </trkpt>
      <trkpt lat="43.97426" lon="2.33047">
        <ele>378.7</ele>
        <time>2018-03-04T13:18:19Z</time>
      </trkpt>
      <trkpt lat="43.97433" lon="2.33042">
        <ele>379</ele>
        <time>2018-03-04T13:18:25Z</time>
      </trkpt>
      <trkpt lat="43.97441" lon="2.33038">
        <ele>379</ele>
        <time>2018-03-04T13:18:31Z</time>
      </trkpt>
      <trkpt lat="43.97449" lon="2.33034">
        <ele>379</ele>
        <time>2018-03-04T13:18:37Z</time>
      </trkpt>
      <trkpt lat="43.97457" lon="2.33032">
        <ele>379.2</ele>
        <time>2018-03-04T13:18:43Z</time>
      </trkpt>
      <trkpt lat="43.97464" lon="2.33029">
        <ele>381</ele>
        <time>2018-03-04T13:18:49Z</time>
      </trkpt>
      <trkpt lat="43.97472" lon="2.33027">
        <ele>383</ele>
        <time>2018-03-04T13:18:56Z</time>
      </trkpt>
      <trkpt lat="43.97479" lon="2.33021">
        <ele>383</ele>
        <time>2018-03-04T13:19:01Z</time>
      </trkpt>
      <trkpt lat="43.97488" lon="2.33021">
        <ele>382.1</ele>
        <time>2018-03-04T13:19:06Z</time>
      </trkpt>
      <trkpt lat="43.97496" lon="2.3302">
        <ele>380.1</ele>
        <time>2018-03-04T13:19:09Z</time>
      </trkpt>
      <trkpt lat="43.97503" lon="2.33017">
        <ele>379.3</ele>
        <time>2018-03-04T13:19:16Z</time>
      </trkpt>
      <trkpt lat="43.97509" lon="2.33012">
        <ele>379.9</ele>
        <time>2018-03-04T13:19:21Z</time>
      </trkpt>
      <trkpt lat="43.97515" lon="2.33007">
        <ele>378.7</ele>
        <time>2018-03-04T13:19:28Z</time>
      </trkpt>
      <trkpt lat="43.97516" lon="2.33009">
        <ele>376.2</ele>
        <time>2018-03-04T13:19:35Z</time>
      </trkpt>
      <trkpt lat="43.9752" lon="2.33013">
        <ele>373.6</ele>
        <time>2018-03-04T13:19:42Z</time>
      </trkpt>
      <trkpt lat="43.97529" lon="2.33018">
        <ele>372.9</ele>
        <time>2018-03-04T13:19:47Z</time>
      </trkpt>
      <trkpt lat="43.97527" lon="2.33013">
        <ele>372.9</ele>
        <time>2018-03-04T13:19:54Z</time>
      </trkpt>
      <trkpt lat="43.9752" lon="2.33011">
        <ele>375.9</ele>
        <time>2018-03-04T13:24:00Z</time>
      </trkpt>
      <trkpt lat="43.97525" lon="2.33016">
        <ele>375.6</ele>
        <time>2018-03-04T13:24:08Z</time>
      </trkpt>
      <trkpt lat="43.97531" lon="2.33022">
        <ele>374.3</ele>
        <time>2018-03-04T13:24:13Z</time>
      </trkpt>
      <trkpt lat="43.97536" lon="2.3303">
        <ele>373.2</ele>
        <time>2018-03-04T13:24:18Z</time>
      </trkpt>
      <trkpt lat="43.9754" lon="2.33039">
        <ele>372</ele>
        <time>2018-03-04T13:24:22Z</time>
      </trkpt>
      <trkpt lat="43.97543" lon="2.33049">
        <ele>370.6</ele>
        <time>2018-03-04T13:24:27Z</time>
      </trkpt>
      <trkpt lat="43.97545" lon="2.33061">
        <ele>370.3</ele>
        <time>2018-03-04T13:24:32Z</time>
      </trkpt>
      <trkpt lat="43.97546" lon="2.33072">
        <ele>370.8</ele>
        <time>2018-03-04T13:24:39Z</time>
      </trkpt>
      <trkpt lat="43.97546" lon="2.33082">
        <ele>372</ele>
        <time>2018-03-04T13:24:45Z</time>
      </trkpt>
      <trkpt lat="43.97544" lon="2.33093">
        <ele>373.8</ele>
        <time>2018-03-04T13:24:52Z</time>
      </trkpt>
      <trkpt lat="43.97542" lon="2.33102">
        <ele>375.1</ele>
        <time>2018-03-04T13:24:57Z</time>
      </trkpt>
      <trkpt lat="43.97538" lon="2.33113">
        <ele>376.5</ele>
        <time>2018-03-04T13:25:03Z</time>
      </trkpt>
      <trkpt lat="43.97537" lon="2.33125">
        <ele>378</ele>
        <time>2018-03-04T13:25:09Z</time>
      </trkpt>
      <trkpt lat="43.97538" lon="2.33136">
        <ele>378.5</ele>
        <time>2018-03-04T13:25:14Z</time>
      </trkpt>
      <trkpt lat="43.9754" lon="2.33147">
        <ele>379.7</ele>
        <time>2018-03-04T13:25:20Z</time>
      </trkpt>
      <trkpt lat="43.97537" lon="2.33159">
        <ele>381</ele>
        <time>2018-03-04T13:25:26Z</time>
      </trkpt>
      <trkpt lat="43.97535" lon="2.33168">
        <ele>381.9</ele>
        <time>2018-03-04T13:25:32Z</time>
      </trkpt>
      <trkpt lat="43.97534" lon="2.33179">
        <ele>382.9</ele>
        <time>2018-03-04T13:25:38Z</time>
      </trkpt>
      <trkpt lat="43.97534" lon="2.33188">
        <ele>383.3</ele>
        <time>2018-03-04T13:25:43Z</time>
      </trkpt>
      <trkpt lat="43.97533" lon="2.332">
        <ele>384.5</ele>
        <time>2018-03-04T13:25:48Z</time>
      </trkpt>
      <trkpt lat="43.97533" lon="2.3321">
        <ele>386.4</ele>
        <time>2018-03-04T13:25:55Z</time>
      </trkpt>
      <trkpt lat="43.97533" lon="2.3322">
        <ele>386.7</ele>
        <time>2018-03-04T13:25:59Z</time>
      </trkpt>
      <trkpt lat="43.97534" lon="2.33231">
        <ele>386.4</ele>
        <time>2018-03-04T13:26:04Z</time>
      </trkpt>
      <trkpt lat="43.97539" lon="2.33239">
        <ele>384.9</ele>
        <time>2018-03-04T13:26:09Z</time>
      </trkpt>
      <trkpt lat="43.97547" lon="2.33241">
        <ele>381.3</ele>
        <time>2018-03-04T13:26:15Z</time>
      </trkpt>
      <trkpt lat="43.97554" lon="2.3324">
        <ele>378.7</ele>
        <time>2018-03-04T13:26:22Z</time>
      </trkpt>
      <trkpt lat="43.9756" lon="2.33239">
        <ele>375.9</ele>
        <time>2018-03-04T13:26:29Z</time>
      </trkpt>
      <trkpt lat="43.97568" lon="2.33236">
        <ele>372.7</ele>
        <time>2018-03-04T13:26:36Z</time>
      </trkpt>
      <trkpt lat="43.97576" lon="2.33237">
        <ele>369.5</ele>
        <time>2018-03-04T13:26:41Z</time>
      </trkpt>
      <trkpt lat="43.97583" lon="2.33237">
        <ele>367.5</ele>
        <time>2018-03-04T13:26:46Z</time>
      </trkpt>
      <trkpt lat="43.97591" lon="2.33235">
        <ele>367.2</ele>
        <time>2018-03-04T13:26:52Z</time>
      </trkpt>
      <trkpt lat="43.97596" lon="2.33235">
        <ele>367.5</ele>
        <time>2018-03-04T13:26:59Z</time>
      </trkpt>
      <trkpt lat="43.97601" lon="2.33245">
        <ele>366.1</ele>
        <time>2018-03-04T13:27:05Z</time>
      </trkpt>
      <trkpt lat="43.97606" lon="2.33252">
        <ele>365</ele>
        <time>2018-03-04T13:27:10Z</time>
      </trkpt>
      <trkpt lat="43.97612" lon="2.33258">
        <ele>364</ele>
        <time>2018-03-04T13:27:15Z</time>
      </trkpt>
      <trkpt lat="43.97615" lon="2.33265">
        <ele>363</ele>
        <time>2018-03-04T13:27:22Z</time>
      </trkpt>
      <trkpt lat="43.97622" lon="2.33272">
        <ele>361.3</ele>
        <time>2018-03-04T13:27:29Z</time>
      </trkpt>
      <trkpt lat="43.97629" lon="2.33279">
        <ele>360.3</ele>
        <time>2018-03-04T13:27:34Z</time>
      </trkpt>
      <trkpt lat="43.97636" lon="2.33285">
        <ele>358.8</ele>
        <time>2018-03-04T13:27:40Z</time>
      </trkpt>
      <trkpt lat="43.97641" lon="2.33292">
        <ele>357.3</ele>
        <time>2018-03-04T13:27:47Z</time>
      </trkpt>
      <trkpt lat="43.97644" lon="2.33302">
        <ele>354</ele>
        <time>2018-03-04T13:27:54Z</time>
      </trkpt>
      <trkpt lat="43.97643" lon="2.33307">
        <ele>350.3</ele>
        <time>2018-03-04T13:28:01Z</time>
      </trkpt>
      <trkpt lat="43.97644" lon="2.33313">
        <ele>347.9</ele>
        <time>2018-03-04T13:28:08Z</time>
      </trkpt>
      <trkpt lat="43.97644" lon="2.33323">
        <ele>347.1</ele>
        <time>2018-03-04T13:28:15Z</time>
      </trkpt>
      <trkpt lat="43.9764" lon="2.33332">
        <ele>345.7</ele>
        <time>2018-03-04T13:28:22Z</time>
      </trkpt>
      <trkpt lat="43.97637" lon="2.33341">
        <ele>344.8</ele>
        <time>2018-03-04T13:28:28Z</time>
      </trkpt>
      <trkpt lat="43.97634" lon="2.33351">
        <ele>344.1</ele>
        <time>2018-03-04T13:28:35Z</time>
      </trkpt>
      <trkpt lat="43.97628" lon="2.33359">
        <ele>343.4</ele>
        <time>2018-03-04T13:28:42Z</time>
      </trkpt>
      <trkpt lat="43.97623" lon="2.33367">
        <ele>342.9</ele>
        <time>2018-03-04T13:28:48Z</time>
      </trkpt>
      <trkpt lat="43.97616" lon="2.33373">
        <ele>343</ele>
        <time>2018-03-04T13:28:54Z</time>
      </trkpt>
      <trkpt lat="43.97609" lon="2.3338">
        <ele>342.8</ele>
        <time>2018-03-04T13:28:59Z</time>
      </trkpt>
      <trkpt lat="43.97602" lon="2.33386">
        <ele>342.1</ele>
        <time>2018-03-04T13:29:04Z</time>
      </trkpt>
      <trkpt lat="43.97596" lon="2.3339">
        <ele>341.5</ele>
        <time>2018-03-04T13:29:09Z</time>
      </trkpt>
      <trkpt lat="43.97589" lon="2.33397">
        <ele>341.5</ele>
        <time>2018-03-04T13:29:15Z</time>
      </trkpt>
      <trkpt lat="43.97582" lon="2.33399">
        <ele>340.9</ele>
        <time>2018-03-04T13:29:20Z</time>
      </trkpt>
      <trkpt lat="43.97574" lon="2.33404">
        <ele>340.6</ele>
        <time>2018-03-04T13:29:26Z</time>
      </trkpt>
      <trkpt lat="43.97567" lon="2.33411">
        <ele>340.6</ele>
        <time>2018-03-04T13:29:32Z</time>
      </trkpt>
      <trkpt lat="43.97561" lon="2.33417">
        <ele>340.4</ele>
        <time>2018-03-04T13:29:37Z</time>
      </trkpt>
      <trkpt lat="43.97554" lon="2.3342">
        <ele>339.5</ele>
        <time>2018-03-04T13:29:42Z</time>
      </trkpt>
      <trkpt lat="43.97546" lon="2.33423">
        <ele>337.6</ele>
        <time>2018-03-04T13:29:49Z</time>
      </trkpt>
      <trkpt lat="43.9754" lon="2.33432">
        <ele>335.5</ele>
        <time>2018-03-04T13:29:56Z</time>
      </trkpt>
      <trkpt lat="43.97534" lon="2.33439">
        <ele>335.3</ele>
        <time>2018-03-04T13:30:01Z</time>
      </trkpt>
      <trkpt lat="43.97528" lon="2.33446">
        <ele>335.1</ele>
        <time>2018-03-04T13:30:08Z</time>
      </trkpt>
      <trkpt lat="43.9752" lon="2.33449">
        <ele>334.8</ele>
        <time>2018-03-04T13:30:14Z</time>
      </trkpt>
      <trkpt lat="43.97515" lon="2.33456">
        <ele>334.7</ele>
        <time>2018-03-04T13:30:21Z</time>
      </trkpt>
      <trkpt lat="43.97508" lon="2.33463">
        <ele>334.2</ele>
        <time>2018-03-04T13:30:27Z</time>
      </trkpt>
      <trkpt lat="43.97501" lon="2.33467">
        <ele>334.3</ele>
        <time>2018-03-04T13:30:33Z</time>
      </trkpt>
      <trkpt lat="43.97495" lon="2.33474">
        <ele>334.8</ele>
        <time>2018-03-04T13:30:40Z</time>
      </trkpt>
      <trkpt lat="43.97488" lon="2.33481">
        <ele>334.5</ele>
        <time>2018-03-04T13:30:47Z</time>
      </trkpt>
      <trkpt lat="43.97484" lon="2.3349">
        <ele>333.6</ele>
        <time>2018-03-04T13:30:53Z</time>
      </trkpt>
      <trkpt lat="43.97484" lon="2.33495">
        <ele>333.5</ele>
        <time>2018-03-04T13:31:00Z</time>
      </trkpt>
      <trkpt lat="43.97488" lon="2.33499">
        <ele>331.9</ele>
        <time>2018-03-04T13:31:07Z</time>
      </trkpt>
      <trkpt lat="43.97496" lon="2.33504">
        <ele>331.6</ele>
        <time>2018-03-04T13:31:12Z</time>
      </trkpt>
      <trkpt lat="43.975" lon="2.33513">
        <ele>338.3</ele>
        <time>2018-03-04T13:31:18Z</time>
      </trkpt>
      <trkpt lat="43.97507" lon="2.33512">
        <ele>340.4</ele>
        <time>2018-03-04T13:31:24Z</time>
      </trkpt>
      <trkpt lat="43.97513" lon="2.33514">
        <ele>342.1</ele>
        <time>2018-03-04T13:31:30Z</time>
      </trkpt>
      <trkpt lat="43.9752" lon="2.33512">
        <ele>342.8</ele>
        <time>2018-03-04T13:31:36Z</time>
      </trkpt>
      <trkpt lat="43.97528" lon="2.33508">
        <ele>344.5</ele>
        <time>2018-03-04T13:31:42Z</time>
      </trkpt>
      <trkpt lat="43.97535" lon="2.33502">
        <ele>345.9</ele>
        <time>2018-03-04T13:31:49Z</time>
      </trkpt>
      <trkpt lat="43.97542" lon="2.33495">
        <ele>347.2</ele>
        <time>2018-03-04T13:31:54Z</time>
      </trkpt>
      <trkpt lat="43.9755" lon="2.33493">
        <ele>347.3</ele>
        <time>2018-03-04T13:31:58Z</time>
      </trkpt>
      <trkpt lat="43.97557" lon="2.33488">
        <ele>349.4</ele>
        <time>2018-03-04T13:32:03Z</time>
      </trkpt>
      <trkpt lat="43.97565" lon="2.33483">
        <ele>348.9</ele>
        <time>2018-03-04T13:32:10Z</time>
      </trkpt>
      <trkpt lat="43.97571" lon="2.33475">
        <ele>351.4</ele>
        <time>2018-03-04T13:32:15Z</time>
      </trkpt>
      <trkpt lat="43.97576" lon="2.33467">
        <ele>352.7</ele>
        <time>2018-03-04T13:32:20Z</time>
      </trkpt>
      <trkpt lat="43.97584" lon="2.33466">
        <ele>356.1</ele>
        <time>2018-03-04T13:32:26Z</time>
      </trkpt>
      <trkpt lat="43.97591" lon="2.33461">
        <ele>358.4</ele>
        <time>2018-03-04T13:32:31Z</time>
      </trkpt>
      <trkpt lat="43.97599" lon="2.33458">
        <ele>360.5</ele>
        <time>2018-03-04T13:32:36Z</time>
      </trkpt>
      <trkpt lat="43.97606" lon="2.33456">
        <ele>361.7</ele>
        <time>2018-03-04T13:32:42Z</time>
      </trkpt>
      <trkpt lat="43.97614" lon="2.33453">
        <ele>362.8</ele>
        <time>2018-03-04T13:32:48Z</time>
      </trkpt>
      <trkpt lat="43.97622" lon="2.33451">
        <ele>363.9</ele>
        <time>2018-03-04T13:32:54Z</time>
      </trkpt>
      <trkpt lat="43.97629" lon="2.33445">
        <ele>365.1</ele>
        <time>2018-03-04T13:33:01Z</time>
      </trkpt>
      <trkpt lat="43.97636" lon="2.33442">
        <ele>366</ele>
        <time>2018-03-04T13:33:08Z</time>
      </trkpt>
      <trkpt lat="43.97643" lon="2.33442">
        <ele>366.4</ele>
        <time>2018-03-04T13:33:13Z</time>
      </trkpt>
      <trkpt lat="43.97651" lon="2.33437">
        <ele>367.2</ele>
        <time>2018-03-04T13:33:19Z</time>
      </trkpt>
      <trkpt lat="43.9766" lon="2.33436">
        <ele>368.1</ele>
        <time>2018-03-04T13:33:24Z</time>
      </trkpt>
      <trkpt lat="43.97667" lon="2.33433">
        <ele>368.2</ele>
        <time>2018-03-04T13:33:29Z</time>
      </trkpt>
      <trkpt lat="43.97672" lon="2.33427">
        <ele>368</ele>
        <time>2018-03-04T13:33:34Z</time>
      </trkpt>
      <trkpt lat="43.97679" lon="2.3342">
        <ele>368</ele>
        <time>2018-03-04T13:33:39Z</time>
      </trkpt>
      <trkpt lat="43.97686" lon="2.33413">
        <ele>367.8</ele>
        <time>2018-03-04T13:33:45Z</time>
      </trkpt>
      <trkpt lat="43.97691" lon="2.33404">
        <ele>368.8</ele>
        <time>2018-03-04T13:33:50Z</time>
      </trkpt>
      <trkpt lat="43.97695" lon="2.33396">
        <ele>368.6</ele>
        <time>2018-03-04T13:33:55Z</time>
      </trkpt>
      <trkpt lat="43.97702" lon="2.33389">
        <ele>368.8</ele>
        <time>2018-03-04T13:34:01Z</time>
      </trkpt>
      <trkpt lat="43.97709" lon="2.33385">
        <ele>367.6</ele>
        <time>2018-03-04T13:34:08Z</time>
      </trkpt>
      <trkpt lat="43.97715" lon="2.33376">
        <ele>368</ele>
        <time>2018-03-04T13:34:14Z</time>
      </trkpt>
      <trkpt lat="43.97721" lon="2.33368">
        <ele>369.1</ele>
        <time>2018-03-04T13:34:19Z</time>
      </trkpt>
      <trkpt lat="43.97728" lon="2.33363">
        <ele>370</ele>
        <time>2018-03-04T13:34:24Z</time>
      </trkpt>
      <trkpt lat="43.97736" lon="2.33362">
        <ele>371.6</ele>
        <time>2018-03-04T13:34:31Z</time>
      </trkpt>
      <trkpt lat="43.9774" lon="2.33354">
        <ele>372.4</ele>
        <time>2018-03-04T13:34:35Z</time>
      </trkpt>
      <trkpt lat="43.97746" lon="2.33345">
        <ele>370.8</ele>
        <time>2018-03-04T13:34:40Z</time>
      </trkpt>
      <trkpt lat="43.97751" lon="2.3334">
        <ele>368.5</ele>
        <time>2018-03-04T13:34:47Z</time>
      </trkpt>
      <trkpt lat="43.97758" lon="2.33337">
        <ele>366.7</ele>
        <time>2018-03-04T13:34:54Z</time>
      </trkpt>
      <trkpt lat="43.97763" lon="2.33328">
        <ele>366.3</ele>
        <time>2018-03-04T13:35:01Z</time>
      </trkpt>
      <trkpt lat="43.97769" lon="2.3332">
        <ele>365.5</ele>
        <time>2018-03-04T13:35:07Z</time>
      </trkpt>
      <trkpt lat="43.97775" lon="2.33316">
        <ele>365</ele>
        <time>2018-03-04T13:35:12Z</time>
      </trkpt>
      <trkpt lat="43.97783" lon="2.33311">
        <ele>364.8</ele>
        <time>2018-03-04T13:35:18Z</time>
      </trkpt>
      <trkpt lat="43.9779" lon="2.33306">
        <ele>364.2</ele>
        <time>2018-03-04T13:35:24Z</time>
      </trkpt>
      <trkpt lat="43.97798" lon="2.33303">
        <ele>364</ele>
        <time>2018-03-04T13:35:31Z</time>
      </trkpt>
      <trkpt lat="43.97806" lon="2.33303">
        <ele>364.3</ele>
        <time>2018-03-04T13:35:38Z</time>
      </trkpt>
      <trkpt lat="43.97814" lon="2.33302">
        <ele>364.9</ele>
        <time>2018-03-04T13:35:44Z</time>
      </trkpt>
      <trkpt lat="43.97822" lon="2.33301">
        <ele>364.6</ele>
        <time>2018-03-04T13:35:51Z</time>
      </trkpt>
      <trkpt lat="43.97828" lon="2.33301">
        <ele>364.5</ele>
        <time>2018-03-04T13:35:58Z</time>
      </trkpt>
      <trkpt lat="43.97831" lon="2.333">
        <ele>364.4</ele>
        <time>2018-03-04T13:36:05Z</time>
      </trkpt>
      <trkpt lat="43.97834" lon="2.33305">
        <ele>363.3</ele>
        <time>2018-03-04T13:36:12Z</time>
      </trkpt>
      <trkpt lat="43.97835" lon="2.33314">
        <ele>362</ele>
        <time>2018-03-04T13:36:19Z</time>
      </trkpt>
      <trkpt lat="43.97834" lon="2.33325">
        <ele>360.7</ele>
        <time>2018-03-04T13:36:25Z</time>
      </trkpt>
      <trkpt lat="43.97833" lon="2.33335">
        <ele>359.7</ele>
        <time>2018-03-04T13:36:31Z</time>
      </trkpt>
      <trkpt lat="43.97831" lon="2.33345">
        <ele>358.5</ele>
        <time>2018-03-04T13:36:37Z</time>
      </trkpt>
      <trkpt lat="43.9783" lon="2.33357">
        <ele>357.6</ele>
        <time>2018-03-04T13:36:44Z</time>
      </trkpt>
      <trkpt lat="43.97829" lon="2.33367">
        <ele>357</ele>
        <time>2018-03-04T13:36:50Z</time>
      </trkpt>
      <trkpt lat="43.97827" lon="2.33378">
        <ele>355.6</ele>
        <time>2018-03-04T13:36:56Z</time>
      </trkpt>
      <trkpt lat="43.97825" lon="2.33388">
        <ele>354.9</ele>
        <time>2018-03-04T13:37:02Z</time>
      </trkpt>
      <trkpt lat="43.97823" lon="2.33399">
        <ele>353.2</ele>
        <time>2018-03-04T13:37:09Z</time>
      </trkpt>
      <trkpt lat="43.9782" lon="2.33412">
        <ele>353.4</ele>
        <time>2018-03-04T13:37:14Z</time>
      </trkpt>
      <trkpt lat="43.97822" lon="2.3342">
        <ele>353.8</ele>
        <time>2018-03-04T13:37:21Z</time>
      </trkpt>
      <trkpt lat="43.97823" lon="2.33425">
        <ele>353.3</ele>
        <time>2018-03-04T13:37:28Z</time>
      </trkpt>
      <trkpt lat="43.97824" lon="2.33425">
        <ele>352.3</ele>
        <time>2018-03-04T13:37:36Z</time>
      </trkpt>
      <trkpt lat="43.9783" lon="2.33424">
        <ele>351.2</ele>
        <time>2018-03-04T13:37:45Z</time>
      </trkpt>
      <trkpt lat="43.97835" lon="2.33423">
        <ele>350.8</ele>
        <time>2018-03-04T13:37:52Z</time>
      </trkpt>
      <trkpt lat="43.97838" lon="2.33418">
        <ele>349.5</ele>
        <time>2018-03-04T13:37:59Z</time>
      </trkpt>
      <trkpt lat="43.97837" lon="2.33417">
        <ele>349.7</ele>
        <time>2018-03-04T13:38:06Z</time>
      </trkpt>
      <trkpt lat="43.97834" lon="2.33418">
        <ele>350</ele>
        <time>2018-03-04T13:38:13Z</time>
      </trkpt>
      <trkpt lat="43.97831" lon="2.33418">
        <ele>350.8</ele>
        <time>2018-03-04T13:38:20Z</time>
      </trkpt>
      <trkpt lat="43.97829" lon="2.3343">
        <ele>362.7</ele>
        <time>2018-03-04T13:38:30Z</time>
      </trkpt>
      <trkpt lat="43.97837" lon="2.3343">
        <ele>367.7</ele>
        <time>2018-03-04T13:38:52Z</time>
      </trkpt>
      <trkpt lat="43.97843" lon="2.33431">
        <ele>368.3</ele>
        <time>2018-03-04T13:38:59Z</time>
      </trkpt>
      <trkpt lat="43.97847" lon="2.33432">
        <ele>368.8</ele>
        <time>2018-03-04T13:39:06Z</time>
      </trkpt>
      <trkpt lat="43.97852" lon="2.33434">
        <ele>369.2</ele>
        <time>2018-03-04T13:39:13Z</time>
      </trkpt>
      <trkpt lat="43.97856" lon="2.33436">
        <ele>369.4</ele>
        <time>2018-03-04T13:39:20Z</time>
      </trkpt>
      <trkpt lat="43.97858" lon="2.33434">
        <ele>369.6</ele>
        <time>2018-03-04T13:39:29Z</time>
      </trkpt>
      <trkpt lat="43.97866" lon="2.33436">
        <ele>369.6</ele>
        <time>2018-03-04T13:39:36Z</time>
      </trkpt>
      <trkpt lat="43.97865" lon="2.33439">
        <ele>369.4</ele>
        <time>2018-03-04T13:39:43Z</time>
      </trkpt>
      <trkpt lat="43.97871" lon="2.33433">
        <ele>369.3</ele>
        <time>2018-03-04T13:40:06Z</time>
      </trkpt>
      <trkpt lat="43.97878" lon="2.33432">
        <ele>369.5</ele>
        <time>2018-03-04T13:40:11Z</time>
      </trkpt>
      <trkpt lat="43.97885" lon="2.33432">
        <ele>370.3</ele>
        <time>2018-03-04T13:40:18Z</time>
      </trkpt>
      <trkpt lat="43.97891" lon="2.33434">
        <ele>373.4</ele>
        <time>2018-03-04T13:40:25Z</time>
      </trkpt>
      <trkpt lat="43.97898" lon="2.33436">
        <ele>374.2</ele>
        <time>2018-03-04T13:40:32Z</time>
      </trkpt>
      <trkpt lat="43.97904" lon="2.33438">
        <ele>375.3</ele>
        <time>2018-03-04T13:40:39Z</time>
      </trkpt>
      <trkpt lat="43.97912" lon="2.33438">
        <ele>376.2</ele>
        <time>2018-03-04T13:40:46Z</time>
      </trkpt>
      <trkpt lat="43.9792" lon="2.33438">
        <ele>377.4</ele>
        <time>2018-03-04T13:40:53Z</time>
      </trkpt>
      <trkpt lat="43.97928" lon="2.33438">
        <ele>378.2</ele>
        <time>2018-03-04T13:40:59Z</time>
      </trkpt>
      <trkpt lat="43.97936" lon="2.33438">
        <ele>383.2</ele>
        <time>2018-03-04T13:41:06Z</time>
      </trkpt>
      <trkpt lat="43.97944" lon="2.33438">
        <ele>385</ele>
        <time>2018-03-04T13:41:11Z</time>
      </trkpt>
      <trkpt lat="43.97952" lon="2.33438">
        <ele>386.4</ele>
        <time>2018-03-04T13:41:16Z</time>
      </trkpt>
      <trkpt lat="43.97961" lon="2.33436">
        <ele>385.6</ele>
        <time>2018-03-04T13:41:19Z</time>
      </trkpt>
      <trkpt lat="43.97967" lon="2.33433">
        <ele>386.2</ele>
        <time>2018-03-04T13:41:24Z</time>
      </trkpt>
      <trkpt lat="43.97975" lon="2.33431">
        <ele>386.8</ele>
        <time>2018-03-04T13:41:28Z</time>
      </trkpt>
      <trkpt lat="43.97982" lon="2.33429">
        <ele>386.7</ele>
        <time>2018-03-04T13:41:32Z</time>
      </trkpt>
      <trkpt lat="43.9799" lon="2.33426">
        <ele>389.5</ele>
        <time>2018-03-04T13:41:36Z</time>
      </trkpt>
      <trkpt lat="43.97999" lon="2.33426">
        <ele>389.3</ele>
        <time>2018-03-04T13:41:40Z</time>
      </trkpt>
      <trkpt lat="43.98006" lon="2.33427">
        <ele>393.7</ele>
        <time>2018-03-04T13:41:46Z</time>
      </trkpt>
      <trkpt lat="43.98013" lon="2.3343">
        <ele>395</ele>
        <time>2018-03-04T13:41:53Z</time>
      </trkpt>
      <trkpt lat="43.98021" lon="2.3343">
        <ele>397.3</ele>
        <time>2018-03-04T13:41:58Z</time>
      </trkpt>
      <trkpt lat="43.98028" lon="2.33431">
        <ele>399</ele>
        <time>2018-03-04T13:42:04Z</time>
      </trkpt>
      <trkpt lat="43.98037" lon="2.33431">
        <ele>400.1</ele>
        <time>2018-03-04T13:42:09Z</time>
      </trkpt>
      <trkpt lat="43.98044" lon="2.33432">
        <ele>401.2</ele>
        <time>2018-03-04T13:42:15Z</time>
      </trkpt>
      <trkpt lat="43.98052" lon="2.33434">
        <ele>401.2</ele>
        <time>2018-03-04T13:42:20Z</time>
      </trkpt>
      <trkpt lat="43.9806" lon="2.33432">
        <ele>400.3</ele>
        <time>2018-03-04T13:42:25Z</time>
      </trkpt>
      <trkpt lat="43.98068" lon="2.33432">
        <ele>399.8</ele>
        <time>2018-03-04T13:42:30Z</time>
      </trkpt>
      <trkpt lat="43.98075" lon="2.33434">
        <ele>397.6</ele>
        <time>2018-03-04T13:42:36Z</time>
      </trkpt>
      <trkpt lat="43.98083" lon="2.33434">
        <ele>396</ele>
        <time>2018-03-04T13:42:41Z</time>
      </trkpt>
      <trkpt lat="43.98092" lon="2.33436">
        <ele>395.3</ele>
        <time>2018-03-04T13:42:47Z</time>
      </trkpt>
      <trkpt lat="43.98099" lon="2.33439">
        <ele>395.1</ele>
        <time>2018-03-04T13:42:52Z</time>
      </trkpt>
      <trkpt lat="43.98108" lon="2.3344">
        <ele>395.2</ele>
        <time>2018-03-04T13:42:58Z</time>
      </trkpt>
      <trkpt lat="43.98115" lon="2.33439">
        <ele>394.7</ele>
        <time>2018-03-04T13:43:03Z</time>
      </trkpt>
      <trkpt lat="43.98123" lon="2.33438">
        <ele>393.2</ele>
        <time>2018-03-04T13:43:08Z</time>
      </trkpt>
      <trkpt lat="43.98129" lon="2.33434">
        <ele>391.2</ele>
        <time>2018-03-04T13:43:15Z</time>
      </trkpt>
      <trkpt lat="43.98134" lon="2.33428">
        <ele>387.6</ele>
        <time>2018-03-04T13:43:22Z</time>
      </trkpt>
      <trkpt lat="43.98137" lon="2.33419">
        <ele>385.1</ele>
        <time>2018-03-04T13:43:29Z</time>
      </trkpt>
      <trkpt lat="43.98139" lon="2.33409">
        <ele>383.4</ele>
        <time>2018-03-04T13:43:36Z</time>
      </trkpt>
      <trkpt lat="43.98141" lon="2.33398">
        <ele>381.3</ele>
        <time>2018-03-04T13:43:42Z</time>
      </trkpt>
      <trkpt lat="43.9814" lon="2.33386">
        <ele>381.5</ele>
        <time>2018-03-04T13:43:48Z</time>
      </trkpt>
      <trkpt lat="43.98141" lon="2.33375">
        <ele>381.5</ele>
        <time>2018-03-04T13:43:53Z</time>
      </trkpt>
      <trkpt lat="43.98141" lon="2.33364">
        <ele>381.9</ele>
        <time>2018-03-04T13:43:58Z</time>
      </trkpt>
      <trkpt lat="43.98142" lon="2.33355">
        <ele>382.4</ele>
        <time>2018-03-04T13:44:03Z</time>
      </trkpt>
      <trkpt lat="43.9814" lon="2.33345">
        <ele>383.3</ele>
        <time>2018-03-04T13:44:09Z</time>
      </trkpt>
      <trkpt lat="43.98139" lon="2.33343">
        <ele>383.6</ele>
        <time>2018-03-04T13:44:16Z</time>
      </trkpt>
      <trkpt lat="43.98141" lon="2.33333">
        <ele>383.5</ele>
        <time>2018-03-04T13:44:22Z</time>
      </trkpt>
      <trkpt lat="43.98141" lon="2.33323">
        <ele>383.5</ele>
        <time>2018-03-04T13:44:27Z</time>
      </trkpt>
      <trkpt lat="43.9814" lon="2.33311">
        <ele>384.1</ele>
        <time>2018-03-04T13:44:33Z</time>
      </trkpt>
      <trkpt lat="43.98141" lon="2.333">
        <ele>384.3</ele>
        <time>2018-03-04T13:44:39Z</time>
      </trkpt>
      <trkpt lat="43.98144" lon="2.3329">
        <ele>384.7</ele>
        <time>2018-03-04T13:44:45Z</time>
      </trkpt>
      <trkpt lat="43.98143" lon="2.33278">
        <ele>385.1</ele>
        <time>2018-03-04T13:44:51Z</time>
      </trkpt>
      <trkpt lat="43.98143" lon="2.33268">
        <ele>385.1</ele>
        <time>2018-03-04T13:44:56Z</time>
      </trkpt>
      <trkpt lat="43.98143" lon="2.33257">
        <ele>385</ele>
        <time>2018-03-04T13:45:01Z</time>
      </trkpt>
      <trkpt lat="43.98144" lon="2.33245">
        <ele>385.2</ele>
        <time>2018-03-04T13:45:06Z</time>
      </trkpt>
      <trkpt lat="43.98141" lon="2.33234">
        <ele>385.3</ele>
        <time>2018-03-04T13:45:10Z</time>
      </trkpt>
      <trkpt lat="43.98139" lon="2.33224">
        <ele>385.3</ele>
        <time>2018-03-04T13:45:15Z</time>
      </trkpt>
      <trkpt lat="43.98139" lon="2.33212">
        <ele>384.9</ele>
        <time>2018-03-04T13:45:21Z</time>
      </trkpt>
      <trkpt lat="43.98139" lon="2.33201">
        <ele>384.2</ele>
        <time>2018-03-04T13:45:26Z</time>
      </trkpt>
      <trkpt lat="43.98139" lon="2.33191">
        <ele>382.7</ele>
        <time>2018-03-04T13:45:33Z</time>
      </trkpt>
      <trkpt lat="43.98139" lon="2.33187">
        <ele>380.3</ele>
        <time>2018-03-04T13:46:13Z</time>
      </trkpt>
      <trkpt lat="43.9814" lon="2.3318">
        <ele>379.9</ele>
        <time>2018-03-04T13:46:20Z</time>
      </trkpt>
      <trkpt lat="43.98141" lon="2.33172">
        <ele>378.5</ele>
        <time>2018-03-04T13:46:27Z</time>
      </trkpt>
      <trkpt lat="43.98143" lon="2.33162">
        <ele>376.1</ele>
        <time>2018-03-04T13:46:34Z</time>
      </trkpt>
      <trkpt lat="43.98146" lon="2.33154">
        <ele>375.2</ele>
        <time>2018-03-04T13:46:41Z</time>
      </trkpt>
      <trkpt lat="43.98148" lon="2.33145">
        <ele>372.6</ele>
        <time>2018-03-04T13:46:47Z</time>
      </trkpt>
      <trkpt lat="43.98151" lon="2.33135">
        <ele>370.3</ele>
        <time>2018-03-04T13:46:51Z</time>
      </trkpt>
      <trkpt lat="43.98152" lon="2.33126">
        <ele>367.8</ele>
        <time>2018-03-04T13:46:58Z</time>
      </trkpt>
      <trkpt lat="43.98155" lon="2.33102">
        <ele>368.5</ele>
        <time>2018-03-04T13:47:31Z</time>
      </trkpt>
      <trkpt lat="43.9816" lon="2.33094">
        <ele>368.4</ele>
        <time>2018-03-04T13:47:37Z</time>
      </trkpt>
      <trkpt lat="43.98162" lon="2.33084">
        <ele>368.6</ele>
        <time>2018-03-04T13:47:43Z</time>
      </trkpt>
      <trkpt lat="43.98161" lon="2.33071">
        <ele>368.4</ele>
        <time>2018-03-04T13:47:49Z</time>
      </trkpt>
      <trkpt lat="43.98162" lon="2.33061">
        <ele>368.2</ele>
        <time>2018-03-04T13:47:54Z</time>
      </trkpt>
      <trkpt lat="43.98165" lon="2.33052">
        <ele>367.9</ele>
        <time>2018-03-04T13:48:00Z</time>
      </trkpt>
      <trkpt lat="43.9817" lon="2.33044">
        <ele>367.5</ele>
        <time>2018-03-04T13:48:07Z</time>
      </trkpt>
      <trkpt lat="43.98173" lon="2.33033">
        <ele>367.1</ele>
        <time>2018-03-04T13:48:13Z</time>
      </trkpt>
      <trkpt lat="43.98179" lon="2.33025">
        <ele>366.7</ele>
        <time>2018-03-04T13:48:19Z</time>
      </trkpt>
      <trkpt lat="43.98184" lon="2.33017">
        <ele>366.1</ele>
        <time>2018-03-04T13:48:25Z</time>
      </trkpt>
      <trkpt lat="43.98189" lon="2.33008">
        <ele>365.4</ele>
        <time>2018-03-04T13:48:31Z</time>
      </trkpt>
      <trkpt lat="43.98193" lon="2.33001">
        <ele>364.2</ele>
        <time>2018-03-04T13:48:38Z</time>
      </trkpt>
      <trkpt lat="43.98196" lon="2.32992">
        <ele>362.4</ele>
        <time>2018-03-04T13:48:44Z</time>
      </trkpt>
      <trkpt lat="43.98199" lon="2.32982">
        <ele>361.3</ele>
        <time>2018-03-04T13:48:48Z</time>
      </trkpt>
      <trkpt lat="43.982" lon="2.32972">
        <ele>360.4</ele>
        <time>2018-03-04T13:48:53Z</time>
      </trkpt>
      <trkpt lat="43.98203" lon="2.32962">
        <ele>358.8</ele>
        <time>2018-03-04T13:48:59Z</time>
      </trkpt>
      <trkpt lat="43.98205" lon="2.32951">
        <ele>357.9</ele>
        <time>2018-03-04T13:49:04Z</time>
      </trkpt>
      <trkpt lat="43.98208" lon="2.32941">
        <ele>356.1</ele>
        <time>2018-03-04T13:49:10Z</time>
      </trkpt>
      <trkpt lat="43.9821" lon="2.32931">
        <ele>354.6</ele>
        <time>2018-03-04T13:49:15Z</time>
      </trkpt>
      <trkpt lat="43.98211" lon="2.32921">
        <ele>352.8</ele>
        <time>2018-03-04T13:49:23Z</time>
      </trkpt>
      <trkpt lat="43.98215" lon="2.32911">
        <ele>350.6</ele>
        <time>2018-03-04T13:49:28Z</time>
      </trkpt>
      <trkpt lat="43.98221" lon="2.32903">
        <ele>348.3</ele>
        <time>2018-03-04T13:49:34Z</time>
      </trkpt>
      <trkpt lat="43.98227" lon="2.32895">
        <ele>346.2</ele>
        <time>2018-03-04T13:49:41Z</time>
      </trkpt>
      <trkpt lat="43.98232" lon="2.32889">
        <ele>345.2</ele>
        <time>2018-03-04T13:49:46Z</time>
      </trkpt>
      <trkpt lat="43.98238" lon="2.32878">
        <ele>344.5</ele>
        <time>2018-03-04T13:49:52Z</time>
      </trkpt>
      <trkpt lat="43.98242" lon="2.32869">
        <ele>344.1</ele>
        <time>2018-03-04T13:49:55Z</time>
      </trkpt>
      <trkpt lat="43.98244" lon="2.32859">
        <ele>342.9</ele>
        <time>2018-03-04T13:50:00Z</time>
      </trkpt>
      <trkpt lat="43.98248" lon="2.3285">
        <ele>341.2</ele>
        <time>2018-03-04T13:50:05Z</time>
      </trkpt>
      <trkpt lat="43.98251" lon="2.32839">
        <ele>340.2</ele>
        <time>2018-03-04T13:50:11Z</time>
      </trkpt>
      <trkpt lat="43.98252" lon="2.32828">
        <ele>339</ele>
        <time>2018-03-04T13:50:17Z</time>
      </trkpt>
      <trkpt lat="43.98252" lon="2.32816">
        <ele>337.7</ele>
        <time>2018-03-04T13:50:23Z</time>
      </trkpt>
      <trkpt lat="43.98252" lon="2.32806">
        <ele>336.3</ele>
        <time>2018-03-04T13:50:27Z</time>
      </trkpt>
      <trkpt lat="43.98251" lon="2.32796">
        <ele>335.3</ele>
        <time>2018-03-04T13:50:32Z</time>
      </trkpt>
      <trkpt lat="43.9825" lon="2.32784">
        <ele>334.2</ele>
        <time>2018-03-04T13:50:38Z</time>
      </trkpt>
      <trkpt lat="43.9825" lon="2.32776">
        <ele>333.7</ele>
        <time>2018-03-04T13:50:45Z</time>
      </trkpt>
      <trkpt lat="43.9825" lon="2.32775">
        <ele>333.8</ele>
        <time>2018-03-04T13:50:52Z</time>
      </trkpt>
      <trkpt lat="43.98253" lon="2.32759">
        <ele>331.9</ele>
        <time>2018-03-04T13:51:13Z</time>
      </trkpt>
      <trkpt lat="43.98258" lon="2.32751">
        <ele>332.2</ele>
        <time>2018-03-04T13:51:19Z</time>
      </trkpt>
      <trkpt lat="43.98261" lon="2.32746">
        <ele>332.9</ele>
        <time>2018-03-04T13:51:26Z</time>
      </trkpt>
      <trkpt lat="43.98263" lon="2.32735">
        <ele>332.7</ele>
        <time>2018-03-04T13:51:33Z</time>
      </trkpt>
      <trkpt lat="43.98259" lon="2.32726">
        <ele>332.3</ele>
        <time>2018-03-04T13:51:39Z</time>
      </trkpt>
      <trkpt lat="43.98261" lon="2.32717">
        <ele>331.9</ele>
        <time>2018-03-04T13:51:46Z</time>
      </trkpt>
      <trkpt lat="43.98262" lon="2.32706">
        <ele>331.6</ele>
        <time>2018-03-04T13:51:53Z</time>
      </trkpt>
      <trkpt lat="43.98261" lon="2.32695">
        <ele>330.8</ele>
        <time>2018-03-04T13:51:59Z</time>
      </trkpt>
      <trkpt lat="43.9826" lon="2.32685">
        <ele>329.9</ele>
        <time>2018-03-04T13:52:07Z</time>
      </trkpt>
      <trkpt lat="43.98258" lon="2.32673">
        <ele>328.5</ele>
        <time>2018-03-04T13:52:13Z</time>
      </trkpt>
      <trkpt lat="43.98255" lon="2.32664">
        <ele>327.4</ele>
        <time>2018-03-04T13:52:17Z</time>
      </trkpt>
      <trkpt lat="43.98251" lon="2.32654">
        <ele>325.9</ele>
        <time>2018-03-04T13:52:23Z</time>
      </trkpt>
      <trkpt lat="43.98246" lon="2.32645">
        <ele>324</ele>
        <time>2018-03-04T13:52:29Z</time>
      </trkpt>
      <trkpt lat="43.98245" lon="2.32635">
        <ele>323.6</ele>
        <time>2018-03-04T13:52:34Z</time>
      </trkpt>
      <trkpt lat="43.98239" lon="2.3263">
        <ele>324.9</ele>
        <time>2018-03-04T13:52:41Z</time>
      </trkpt>
      <trkpt lat="43.98234" lon="2.32636">
        <ele>326.2</ele>
        <time>2018-03-04T13:52:48Z</time>
      </trkpt>
      <trkpt lat="43.98225" lon="2.32639">
        <ele>328.9</ele>
        <time>2018-03-04T13:52:55Z</time>
      </trkpt>
      <trkpt lat="43.98219" lon="2.32643">
        <ele>331.1</ele>
        <time>2018-03-04T13:53:00Z</time>
      </trkpt>
      <trkpt lat="43.98213" lon="2.32648">
        <ele>333.6</ele>
        <time>2018-03-04T13:53:07Z</time>
      </trkpt>
      <trkpt lat="43.98206" lon="2.32653">
        <ele>334.6</ele>
        <time>2018-03-04T13:53:13Z</time>
      </trkpt>
      <trkpt lat="43.98199" lon="2.32654">
        <ele>334.8</ele>
        <time>2018-03-04T13:53:19Z</time>
      </trkpt>
      <trkpt lat="43.98194" lon="2.32659">
        <ele>336.5</ele>
        <time>2018-03-04T13:53:26Z</time>
      </trkpt>
      <trkpt lat="43.98189" lon="2.32664">
        <ele>335.6</ele>
        <time>2018-03-04T13:53:33Z</time>
      </trkpt>
      <trkpt lat="43.98183" lon="2.32668">
        <ele>334.3</ele>
        <time>2018-03-04T13:53:40Z</time>
      </trkpt>
      <trkpt lat="43.98176" lon="2.32671">
        <ele>333.7</ele>
        <time>2018-03-04T13:53:46Z</time>
      </trkpt>
      <trkpt lat="43.9817" lon="2.32678">
        <ele>331</ele>
        <time>2018-03-04T13:53:52Z</time>
      </trkpt>
      <trkpt lat="43.98163" lon="2.32685">
        <ele>330.5</ele>
        <time>2018-03-04T13:53:57Z</time>
      </trkpt>
      <trkpt lat="43.98156" lon="2.3269">
        <ele>329.2</ele>
        <time>2018-03-04T13:54:03Z</time>
      </trkpt>
      <trkpt lat="43.98149" lon="2.32695">
        <ele>328.7</ele>
        <time>2018-03-04T13:54:10Z</time>
      </trkpt>
      <trkpt lat="43.98143" lon="2.32701">
        <ele>328.1</ele>
        <time>2018-03-04T13:54:16Z</time>
      </trkpt>
      <trkpt lat="43.98134" lon="2.32702">
        <ele>328.8</ele>
        <time>2018-03-04T13:54:22Z</time>
      </trkpt>
      <trkpt lat="43.98126" lon="2.32702">
        <ele>329.3</ele>
        <time>2018-03-04T13:54:28Z</time>
      </trkpt>
      <trkpt lat="43.98118" lon="2.32702">
        <ele>329.3</ele>
        <time>2018-03-04T13:54:34Z</time>
      </trkpt>
      <trkpt lat="43.98115" lon="2.32696">
        <ele>329.7</ele>
        <time>2018-03-04T13:54:41Z</time>
      </trkpt>
      <trkpt lat="43.98116" lon="2.32692">
        <ele>329.6</ele>
        <time>2018-03-04T13:54:48Z</time>
      </trkpt>
      <trkpt lat="43.98121" lon="2.32685">
        <ele>329.9</ele>
        <time>2018-03-04T13:54:55Z</time>
      </trkpt>
      <trkpt lat="43.98126" lon="2.32677">
        <ele>330.1</ele>
        <time>2018-03-04T13:55:01Z</time>
      </trkpt>
      <trkpt lat="43.98131" lon="2.32673">
        <ele>330</ele>
        <time>2018-03-04T13:55:08Z</time>
      </trkpt>
      <trkpt lat="43.98134" lon="2.32667">
        <ele>329.2</ele>
        <time>2018-03-04T13:55:15Z</time>
      </trkpt>
      <trkpt lat="43.98141" lon="2.32663">
        <ele>327.2</ele>
        <time>2018-03-04T13:55:21Z</time>
      </trkpt>
      <trkpt lat="43.98144" lon="2.32663">
        <ele>330.9</ele>
        <time>2018-03-04T13:55:28Z</time>
      </trkpt>
      <trkpt lat="43.98144" lon="2.32657">
        <ele>334.1</ele>
        <time>2018-03-04T13:55:35Z</time>
      </trkpt>
      <trkpt lat="43.98148" lon="2.32648">
        <ele>336.1</ele>
        <time>2018-03-04T13:55:42Z</time>
      </trkpt>
      <trkpt lat="43.98151" lon="2.32635">
        <ele>339.3</ele>
        <time>2018-03-04T13:55:48Z</time>
      </trkpt>
      <trkpt lat="43.98149" lon="2.32624">
        <ele>339.4</ele>
        <time>2018-03-04T13:55:55Z</time>
      </trkpt>
      <trkpt lat="43.98145" lon="2.32616">
        <ele>340</ele>
        <time>2018-03-04T13:56:02Z</time>
      </trkpt>
      <trkpt lat="43.98139" lon="2.32618">
        <ele>338.4</ele>
        <time>2018-03-04T13:56:09Z</time>
      </trkpt>
      <trkpt lat="43.98132" lon="2.32616">
        <ele>337.5</ele>
        <time>2018-03-04T13:56:16Z</time>
      </trkpt>
      <trkpt lat="43.98128" lon="2.32613">
        <ele>336.9</ele>
        <time>2018-03-04T13:56:23Z</time>
      </trkpt>
      <trkpt lat="43.98121" lon="2.32609">
        <ele>336.4</ele>
        <time>2018-03-04T13:56:30Z</time>
      </trkpt>
      <trkpt lat="43.98115" lon="2.32603">
        <ele>336.3</ele>
        <time>2018-03-04T13:56:36Z</time>
      </trkpt>
      <trkpt lat="43.98108" lon="2.326">
        <ele>335.9</ele>
        <time>2018-03-04T13:56:41Z</time>
      </trkpt>
      <trkpt lat="43.98099" lon="2.32595">
        <ele>334.4</ele>
        <time>2018-03-04T13:56:47Z</time>
      </trkpt>
      <trkpt lat="43.98093" lon="2.32589">
        <ele>334</ele>
        <time>2018-03-04T13:56:53Z</time>
      </trkpt>
      <trkpt lat="43.98085" lon="2.32586">
        <ele>334</ele>
        <time>2018-03-04T13:56:58Z</time>
      </trkpt>
      <trkpt lat="43.98077" lon="2.32586">
        <ele>335.2</ele>
        <time>2018-03-04T13:57:05Z</time>
      </trkpt>
      <trkpt lat="43.9807" lon="2.32581">
        <ele>336.6</ele>
        <time>2018-03-04T13:57:12Z</time>
      </trkpt>
      <trkpt lat="43.98064" lon="2.32575">
        <ele>337.9</ele>
        <time>2018-03-04T13:57:19Z</time>
      </trkpt>
      <trkpt lat="43.98058" lon="2.32567">
        <ele>338.9</ele>
        <time>2018-03-04T13:57:26Z</time>
      </trkpt>
      <trkpt lat="43.98058" lon="2.32564">
        <ele>339.2</ele>
        <time>2018-03-04T13:57:33Z</time>
      </trkpt>
      <trkpt lat="43.98057" lon="2.32557">
        <ele>340</ele>
        <time>2018-03-04T13:57:40Z</time>
      </trkpt>
      <trkpt lat="43.98051" lon="2.32548">
        <ele>342.3</ele>
        <time>2018-03-04T13:57:47Z</time>
      </trkpt>
      <trkpt lat="43.98048" lon="2.32538">
        <ele>344.2</ele>
        <time>2018-03-04T13:57:52Z</time>
      </trkpt>
      <trkpt lat="43.98041" lon="2.3254">
        <ele>363.5</ele>
        <time>2018-03-04T13:57:59Z</time>
      </trkpt>
      <trkpt lat="43.98039" lon="2.32531">
        <ele>369</ele>
        <time>2018-03-04T13:58:06Z</time>
      </trkpt>
      <trkpt lat="43.98042" lon="2.32521">
        <ele>371.8</ele>
        <time>2018-03-04T13:58:12Z</time>
      </trkpt>
      <trkpt lat="43.98041" lon="2.32512">
        <ele>372.9</ele>
        <time>2018-03-04T13:58:19Z</time>
      </trkpt>
      <trkpt lat="43.98038" lon="2.32503">
        <ele>375.2</ele>
        <time>2018-03-04T13:58:25Z</time>
      </trkpt>
      <trkpt lat="43.98037" lon="2.32493">
        <ele>376.8</ele>
        <time>2018-03-04T13:58:30Z</time>
      </trkpt>
      <trkpt lat="43.98039" lon="2.32483">
        <ele>376.8</ele>
        <time>2018-03-04T13:58:36Z</time>
      </trkpt>
      <trkpt lat="43.98041" lon="2.32473">
        <ele>376.9</ele>
        <time>2018-03-04T13:58:42Z</time>
      </trkpt>
      <trkpt lat="43.98043" lon="2.32463">
        <ele>377.1</ele>
        <time>2018-03-04T13:58:48Z</time>
      </trkpt>
      <trkpt lat="43.98045" lon="2.32453">
        <ele>377.1</ele>
        <time>2018-03-04T13:58:54Z</time>
      </trkpt>
      <trkpt lat="43.98048" lon="2.32442">
        <ele>376.8</ele>
        <time>2018-03-04T13:58:59Z</time>
      </trkpt>
      <trkpt lat="43.98049" lon="2.3243">
        <ele>377.4</ele>
        <time>2018-03-04T13:59:04Z</time>
      </trkpt>
      <trkpt lat="43.98051" lon="2.3242">
        <ele>378.4</ele>
        <time>2018-03-04T13:59:09Z</time>
      </trkpt>
      <trkpt lat="43.98055" lon="2.3241">
        <ele>379.5</ele>
        <time>2018-03-04T13:59:15Z</time>
      </trkpt>
      <trkpt lat="43.98058" lon="2.32401">
        <ele>381.2</ele>
        <time>2018-03-04T13:59:21Z</time>
      </trkpt>
      <trkpt lat="43.98062" lon="2.32391">
        <ele>382.4</ele>
        <time>2018-03-04T13:59:27Z</time>
      </trkpt>
      <trkpt lat="43.98064" lon="2.32381">
        <ele>382.9</ele>
        <time>2018-03-04T13:59:33Z</time>
      </trkpt>
      <trkpt lat="43.98065" lon="2.3237">
        <ele>383</ele>
        <time>2018-03-04T13:59:37Z</time>
      </trkpt>
      <trkpt lat="43.98065" lon="2.32359">
        <ele>382.6</ele>
        <time>2018-03-04T13:59:42Z</time>
      </trkpt>
      <trkpt lat="43.98066" lon="2.32349">
        <ele>381.3</ele>
        <time>2018-03-04T13:59:48Z</time>
      </trkpt>
      <trkpt lat="43.9807" lon="2.32339">
        <ele>379.3</ele>
        <time>2018-03-04T13:59:54Z</time>
      </trkpt>
      <trkpt lat="43.98077" lon="2.32333">
        <ele>378.7</ele>
        <time>2018-03-04T14:00:01Z</time>
      </trkpt>
      <trkpt lat="43.98081" lon="2.32325">
        <ele>378.2</ele>
        <time>2018-03-04T14:00:06Z</time>
      </trkpt>
      <trkpt lat="43.98085" lon="2.32317">
        <ele>377.5</ele>
        <time>2018-03-04T14:00:11Z</time>
      </trkpt>
      <trkpt lat="43.98089" lon="2.32306">
        <ele>377.4</ele>
        <time>2018-03-04T14:00:17Z</time>
      </trkpt>
      <trkpt lat="43.98089" lon="2.32295">
        <ele>376.9</ele>
        <time>2018-03-04T14:00:23Z</time>
      </trkpt>
      <trkpt lat="43.98092" lon="2.32286">
        <ele>376.9</ele>
        <time>2018-03-04T14:00:30Z</time>
      </trkpt>
      <trkpt lat="43.98095" lon="2.32277">
        <ele>376.6</ele>
        <time>2018-03-04T14:00:35Z</time>
      </trkpt>
      <trkpt lat="43.98097" lon="2.32266">
        <ele>376.5</ele>
        <time>2018-03-04T14:00:41Z</time>
      </trkpt>
      <trkpt lat="43.98099" lon="2.32256">
        <ele>376.6</ele>
        <time>2018-03-04T14:00:47Z</time>
      </trkpt>
      <trkpt lat="43.98101" lon="2.32246">
        <ele>376.9</ele>
        <time>2018-03-04T14:00:53Z</time>
      </trkpt>
      <trkpt lat="43.98106" lon="2.32238">
        <ele>377.2</ele>
        <time>2018-03-04T14:00:58Z</time>
      </trkpt>
      <trkpt lat="43.9811" lon="2.32228">
        <ele>377.3</ele>
        <time>2018-03-04T14:01:06Z</time>
      </trkpt>
      <trkpt lat="43.98111" lon="2.32217">
        <ele>376.6</ele>
        <time>2018-03-04T14:01:12Z</time>
      </trkpt>
      <trkpt lat="43.98115" lon="2.32207">
        <ele>374.2</ele>
        <time>2018-03-04T14:01:18Z</time>
      </trkpt>
      <trkpt lat="43.98117" lon="2.32197">
        <ele>372.7</ele>
        <time>2018-03-04T14:01:25Z</time>
      </trkpt>
      <trkpt lat="43.98119" lon="2.32187">
        <ele>372.9</ele>
        <time>2018-03-04T14:01:29Z</time>
      </trkpt>
      <trkpt lat="43.98122" lon="2.32178">
        <ele>372.3</ele>
        <time>2018-03-04T14:01:34Z</time>
      </trkpt>
      <trkpt lat="43.98125" lon="2.32169">
        <ele>371.3</ele>
        <time>2018-03-04T14:01:39Z</time>
      </trkpt>
      <trkpt lat="43.98127" lon="2.32159">
        <ele>371</ele>
        <time>2018-03-04T14:01:44Z</time>
      </trkpt>
      <trkpt lat="43.9813" lon="2.32148">
        <ele>371</ele>
        <time>2018-03-04T14:01:50Z</time>
      </trkpt>
      <trkpt lat="43.98132" lon="2.32137">
        <ele>371.2</ele>
        <time>2018-03-04T14:01:57Z</time>
      </trkpt>
      <trkpt lat="43.98134" lon="2.32128">
        <ele>371.5</ele>
        <time>2018-03-04T14:02:03Z</time>
      </trkpt>
      <trkpt lat="43.98134" lon="2.32117">
        <ele>371.4</ele>
        <time>2018-03-04T14:02:08Z</time>
      </trkpt>
      <trkpt lat="43.98136" lon="2.32106">
        <ele>371.3</ele>
        <time>2018-03-04T14:02:14Z</time>
      </trkpt>
      <trkpt lat="43.9814" lon="2.32095">
        <ele>370.6</ele>
        <time>2018-03-04T14:02:20Z</time>
      </trkpt>
      <trkpt lat="43.98143" lon="2.32083">
        <ele>370.6</ele>
        <time>2018-03-04T14:02:26Z</time>
      </trkpt>
      <trkpt lat="43.98144" lon="2.32072">
        <ele>369.4</ele>
        <time>2018-03-04T14:02:31Z</time>
      </trkpt>
      <trkpt lat="43.98147" lon="2.32062">
        <ele>369</ele>
        <time>2018-03-04T14:02:37Z</time>
      </trkpt>
      <trkpt lat="43.98149" lon="2.32052">
        <ele>369.2</ele>
        <time>2018-03-04T14:02:43Z</time>
      </trkpt>
      <trkpt lat="43.98149" lon="2.32042">
        <ele>369.5</ele>
        <time>2018-03-04T14:02:48Z</time>
      </trkpt>
      <trkpt lat="43.98152" lon="2.32032">
        <ele>370.3</ele>
        <time>2018-03-04T14:02:54Z</time>
      </trkpt>
      <trkpt lat="43.98155" lon="2.32022">
        <ele>371</ele>
        <time>2018-03-04T14:03:01Z</time>
      </trkpt>
      <trkpt lat="43.98158" lon="2.32013">
        <ele>372</ele>
        <time>2018-03-04T14:03:06Z</time>
      </trkpt>
      <trkpt lat="43.98164" lon="2.32004">
        <ele>371.5</ele>
        <time>2018-03-04T14:03:13Z</time>
      </trkpt>
      <trkpt lat="43.98167" lon="2.31994">
        <ele>370.4</ele>
        <time>2018-03-04T14:03:19Z</time>
      </trkpt>
      <trkpt lat="43.98171" lon="2.31986">
        <ele>369.6</ele>
        <time>2018-03-04T14:03:25Z</time>
      </trkpt>
      <trkpt lat="43.98174" lon="2.31976">
        <ele>368.9</ele>
        <time>2018-03-04T14:03:31Z</time>
      </trkpt>
      <trkpt lat="43.98177" lon="2.31967">
        <ele>368.7</ele>
        <time>2018-03-04T14:03:36Z</time>
      </trkpt>
      <trkpt lat="43.98182" lon="2.31958">
        <ele>368.4</ele>
        <time>2018-03-04T14:03:42Z</time>
      </trkpt>
      <trkpt lat="43.98184" lon="2.31947">
        <ele>367.9</ele>
        <time>2018-03-04T14:03:47Z</time>
      </trkpt>
      <trkpt lat="43.98186" lon="2.31935">
        <ele>368.4</ele>
        <time>2018-03-04T14:03:53Z</time>
      </trkpt>
      <trkpt lat="43.98186" lon="2.31924">
        <ele>368.2</ele>
        <time>2018-03-04T14:03:58Z</time>
      </trkpt>
      <trkpt lat="43.98189" lon="2.31913">
        <ele>368</ele>
        <time>2018-03-04T14:04:05Z</time>
      </trkpt>
      <trkpt lat="43.98192" lon="2.31905">
        <ele>367.6</ele>
        <time>2018-03-04T14:04:12Z</time>
      </trkpt>
      <trkpt lat="43.98194" lon="2.31897">
        <ele>366.4</ele>
        <time>2018-03-04T14:04:19Z</time>
      </trkpt>
      <trkpt lat="43.98198" lon="2.31889">
        <ele>364.8</ele>
        <time>2018-03-04T14:04:26Z</time>
      </trkpt>
      <trkpt lat="43.98199" lon="2.31878">
        <ele>363.8</ele>
        <time>2018-03-04T14:04:31Z</time>
      </trkpt>
      <trkpt lat="43.98201" lon="2.31866">
        <ele>364.5</ele>
        <time>2018-03-04T14:04:38Z</time>
      </trkpt>
      <trkpt lat="43.98203" lon="2.31857">
        <ele>364.4</ele>
        <time>2018-03-04T14:04:44Z</time>
      </trkpt>
      <trkpt lat="43.98208" lon="2.31849">
        <ele>364.7</ele>
        <time>2018-03-04T14:04:49Z</time>
      </trkpt>
      <trkpt lat="43.98212" lon="2.31839">
        <ele>364.3</ele>
        <time>2018-03-04T14:04:56Z</time>
      </trkpt>
      <trkpt lat="43.98213" lon="2.31828">
        <ele>363.9</ele>
        <time>2018-03-04T14:05:01Z</time>
      </trkpt>
      <trkpt lat="43.98216" lon="2.31818">
        <ele>363.3</ele>
        <time>2018-03-04T14:05:07Z</time>
      </trkpt>
      <trkpt lat="43.98219" lon="2.31808">
        <ele>361.7</ele>
        <time>2018-03-04T14:05:14Z</time>
      </trkpt>
      <trkpt lat="43.98222" lon="2.31796">
        <ele>361.8</ele>
        <time>2018-03-04T14:05:20Z</time>
      </trkpt>
      <trkpt lat="43.98224" lon="2.31786">
        <ele>362.2</ele>
        <time>2018-03-04T14:05:25Z</time>
      </trkpt>
      <trkpt lat="43.98227" lon="2.31776">
        <ele>362.2</ele>
        <time>2018-03-04T14:05:31Z</time>
      </trkpt>
      <trkpt lat="43.98231" lon="2.31764">
        <ele>360.8</ele>
        <time>2018-03-04T14:05:38Z</time>
      </trkpt>
      <trkpt lat="43.98232" lon="2.31754">
        <ele>359.7</ele>
        <time>2018-03-04T14:05:43Z</time>
      </trkpt>
      <trkpt lat="43.98236" lon="2.31746">
        <ele>359.3</ele>
        <time>2018-03-04T14:05:50Z</time>
      </trkpt>
      <trkpt lat="43.9824" lon="2.31736">
        <ele>358.5</ele>
        <time>2018-03-04T14:05:56Z</time>
      </trkpt>
      <trkpt lat="43.98244" lon="2.31727">
        <ele>357.3</ele>
        <time>2018-03-04T14:06:03Z</time>
      </trkpt>
      <trkpt lat="43.98246" lon="2.31719">
        <ele>356.5</ele>
        <time>2018-03-04T14:06:10Z</time>
      </trkpt>
      <trkpt lat="43.98251" lon="2.3171">
        <ele>356</ele>
        <time>2018-03-04T14:06:15Z</time>
      </trkpt>
      <trkpt lat="43.98254" lon="2.317">
        <ele>354.3</ele>
        <time>2018-03-04T14:06:22Z</time>
      </trkpt>
      <trkpt lat="43.98258" lon="2.31692">
        <ele>353.2</ele>
        <time>2018-03-04T14:06:26Z</time>
      </trkpt>
      <trkpt lat="43.98262" lon="2.31682">
        <ele>353.4</ele>
        <time>2018-03-04T14:06:31Z</time>
      </trkpt>
      <trkpt lat="43.98263" lon="2.31672">
        <ele>353.8</ele>
        <time>2018-03-04T14:06:36Z</time>
      </trkpt>
      <trkpt lat="43.98268" lon="2.31663">
        <ele>353.5</ele>
        <time>2018-03-04T14:06:43Z</time>
      </trkpt>
      <trkpt lat="43.9827" lon="2.31653">
        <ele>352.3</ele>
        <time>2018-03-04T14:06:49Z</time>
      </trkpt>
      <trkpt lat="43.98278" lon="2.31646">
        <ele>351.1</ele>
        <time>2018-03-04T14:06:56Z</time>
      </trkpt>
      <trkpt lat="43.98282" lon="2.31639">
        <ele>349.4</ele>
        <time>2018-03-04T14:07:03Z</time>
      </trkpt>
      <trkpt lat="43.98282" lon="2.31629">
        <ele>349.6</ele>
        <time>2018-03-04T14:07:08Z</time>
      </trkpt>
      <trkpt lat="43.98279" lon="2.31618">
        <ele>349.3</ele>
        <time>2018-03-04T14:07:14Z</time>
      </trkpt>
      <trkpt lat="43.98276" lon="2.31607">
        <ele>349.1</ele>
        <time>2018-03-04T14:07:20Z</time>
      </trkpt>
      <trkpt lat="43.98273" lon="2.31598">
        <ele>348.8</ele>
        <time>2018-03-04T14:07:25Z</time>
      </trkpt>
      <trkpt lat="43.9827" lon="2.31587">
        <ele>347.8</ele>
        <time>2018-03-04T14:07:30Z</time>
      </trkpt>
      <trkpt lat="43.98266" lon="2.31579">
        <ele>348</ele>
        <time>2018-03-04T14:07:36Z</time>
      </trkpt>
      <trkpt lat="43.98263" lon="2.31569">
        <ele>347.2</ele>
        <time>2018-03-04T14:07:41Z</time>
      </trkpt>
      <trkpt lat="43.9826" lon="2.31559">
        <ele>346.8</ele>
        <time>2018-03-04T14:07:47Z</time>
      </trkpt>
      <trkpt lat="43.98258" lon="2.31549">
        <ele>347.2</ele>
        <time>2018-03-04T14:07:52Z</time>
      </trkpt>
      <trkpt lat="43.9826" lon="2.31542">
        <ele>345.5</ele>
        <time>2018-03-04T14:07:59Z</time>
      </trkpt>
      <trkpt lat="43.98265" lon="2.31534">
        <ele>343.9</ele>
        <time>2018-03-04T14:08:05Z</time>
      </trkpt>
      <trkpt lat="43.98269" lon="2.31527">
        <ele>342.9</ele>
        <time>2018-03-04T14:08:12Z</time>
      </trkpt>
      <trkpt lat="43.98273" lon="2.31518">
        <ele>341.8</ele>
        <time>2018-03-04T14:08:18Z</time>
      </trkpt>
      <trkpt lat="43.98277" lon="2.31509">
        <ele>342.5</ele>
        <time>2018-03-04T14:08:24Z</time>
      </trkpt>
      <trkpt lat="43.98279" lon="2.31499">
        <ele>343.8</ele>
        <time>2018-03-04T14:08:29Z</time>
      </trkpt>
      <trkpt lat="43.98282" lon="2.31488">
        <ele>342.9</ele>
        <time>2018-03-04T14:08:36Z</time>
      </trkpt>
      <trkpt lat="43.98283" lon="2.31476">
        <ele>343.2</ele>
        <time>2018-03-04T14:08:43Z</time>
      </trkpt>
      <trkpt lat="43.98282" lon="2.31466">
        <ele>343.1</ele>
        <time>2018-03-04T14:08:48Z</time>
      </trkpt>
      <trkpt lat="43.98285" lon="2.31455">
        <ele>344.3</ele>
        <time>2018-03-04T14:08:53Z</time>
      </trkpt>
      <trkpt lat="43.98286" lon="2.31444">
        <ele>345.4</ele>
        <time>2018-03-04T14:08:59Z</time>
      </trkpt>
      <trkpt lat="43.9829" lon="2.31434">
        <ele>345.3</ele>
        <time>2018-03-04T14:09:04Z</time>
      </trkpt>
      <trkpt lat="43.98292" lon="2.31424">
        <ele>346.9</ele>
        <time>2018-03-04T14:09:10Z</time>
      </trkpt>
      <trkpt lat="43.98295" lon="2.31415">
        <ele>347</ele>
        <time>2018-03-04T14:09:15Z</time>
      </trkpt>
      <trkpt lat="43.98297" lon="2.31404">
        <ele>347.7</ele>
        <time>2018-03-04T14:09:20Z</time>
      </trkpt>
      <trkpt lat="43.983" lon="2.31395">
        <ele>347.4</ele>
        <time>2018-03-04T14:09:25Z</time>
      </trkpt>
      <trkpt lat="43.98306" lon="2.31387">
        <ele>346.3</ele>
        <time>2018-03-04T14:09:32Z</time>
      </trkpt>
      <trkpt lat="43.98312" lon="2.3138">
        <ele>345.6</ele>
        <time>2018-03-04T14:09:38Z</time>
      </trkpt>
      <trkpt lat="43.98317" lon="2.31374">
        <ele>343.7</ele>
        <time>2018-03-04T14:09:45Z</time>
      </trkpt>
      <trkpt lat="43.98322" lon="2.31363">
        <ele>342.4</ele>
        <time>2018-03-04T14:09:51Z</time>
      </trkpt>
      <trkpt lat="43.98326" lon="2.31353">
        <ele>342.3</ele>
        <time>2018-03-04T14:09:58Z</time>
      </trkpt>
      <trkpt lat="43.98328" lon="2.31344">
        <ele>341</ele>
        <time>2018-03-04T14:10:05Z</time>
      </trkpt>
      <trkpt lat="43.9833" lon="2.31335">
        <ele>340.5</ele>
        <time>2018-03-04T14:10:11Z</time>
      </trkpt>
      <trkpt lat="43.98335" lon="2.31326">
        <ele>340.4</ele>
        <time>2018-03-04T14:10:15Z</time>
      </trkpt>
      <trkpt lat="43.98338" lon="2.31317">
        <ele>340.1</ele>
        <time>2018-03-04T14:10:21Z</time>
      </trkpt>
      <trkpt lat="43.98342" lon="2.31308">
        <ele>340.2</ele>
        <time>2018-03-04T14:10:27Z</time>
      </trkpt>
      <trkpt lat="43.98346" lon="2.31299">
        <ele>339</ele>
        <time>2018-03-04T14:10:34Z</time>
      </trkpt>
      <trkpt lat="43.98353" lon="2.31298">
        <ele>337.4</ele>
        <time>2018-03-04T14:10:41Z</time>
      </trkpt>
      <trkpt lat="43.9836" lon="2.31296">
        <ele>336.9</ele>
        <time>2018-03-04T14:10:47Z</time>
      </trkpt>
      <trkpt lat="43.98369" lon="2.31292">
        <ele>337.6</ele>
        <time>2018-03-04T14:10:52Z</time>
      </trkpt>
      <trkpt lat="43.98376" lon="2.31286">
        <ele>337.5</ele>
        <time>2018-03-04T14:10:57Z</time>
      </trkpt>
      <trkpt lat="43.98382" lon="2.31278">
        <ele>337.2</ele>
        <time>2018-03-04T14:11:03Z</time>
      </trkpt>
      <trkpt lat="43.98387" lon="2.31269">
        <ele>336.6</ele>
        <time>2018-03-04T14:11:10Z</time>
      </trkpt>
      <trkpt lat="43.98393" lon="2.31264">
        <ele>336.7</ele>
        <time>2018-03-04T14:11:15Z</time>
      </trkpt>
      <trkpt lat="43.98399" lon="2.31256">
        <ele>336.1</ele>
        <time>2018-03-04T14:11:21Z</time>
      </trkpt>
      <trkpt lat="43.98404" lon="2.31248">
        <ele>335</ele>
        <time>2018-03-04T14:11:28Z</time>
      </trkpt>
      <trkpt lat="43.9841" lon="2.31241">
        <ele>334.7</ele>
        <time>2018-03-04T14:11:33Z</time>
      </trkpt>
      <trkpt lat="43.98414" lon="2.31232">
        <ele>334.5</ele>
        <time>2018-03-04T14:11:39Z</time>
      </trkpt>
      <trkpt lat="43.98418" lon="2.31222">
        <ele>333.4</ele>
        <time>2018-03-04T14:11:44Z</time>
      </trkpt>
      <trkpt lat="43.98422" lon="2.31213">
        <ele>332.7</ele>
        <time>2018-03-04T14:11:50Z</time>
      </trkpt>
      <trkpt lat="43.98425" lon="2.31202">
        <ele>332.2</ele>
        <time>2018-03-04T14:11:57Z</time>
      </trkpt>
      <trkpt lat="43.98428" lon="2.31195">
        <ele>331.5</ele>
        <time>2018-03-04T14:12:04Z</time>
      </trkpt>
      <trkpt lat="43.98433" lon="2.31186">
        <ele>331.1</ele>
        <time>2018-03-04T14:12:09Z</time>
      </trkpt>
      <trkpt lat="43.98429" lon="2.31176">
        <ele>328.3</ele>
        <time>2018-03-04T14:12:14Z</time>
      </trkpt>
      <trkpt lat="43.98429" lon="2.31165">
        <ele>327.4</ele>
        <time>2018-03-04T14:12:19Z</time>
      </trkpt>
      <trkpt lat="43.98429" lon="2.31154">
        <ele>328</ele>
        <time>2018-03-04T14:12:26Z</time>
      </trkpt>
      <trkpt lat="43.98429" lon="2.31144">
        <ele>326.9</ele>
        <time>2018-03-04T14:12:32Z</time>
      </trkpt>
      <trkpt lat="43.98431" lon="2.31138">
        <ele>326</ele>
        <time>2018-03-04T14:12:39Z</time>
      </trkpt>
      <trkpt lat="43.98429" lon="2.31127">
        <ele>325.5</ele>
        <time>2018-03-04T14:12:45Z</time>
      </trkpt>
      <trkpt lat="43.98427" lon="2.31116">
        <ele>324.8</ele>
        <time>2018-03-04T14:12:50Z</time>
      </trkpt>
      <trkpt lat="43.98424" lon="2.31108">
        <ele>324</ele>
        <time>2018-03-04T14:12:57Z</time>
      </trkpt>
      <trkpt lat="43.98421" lon="2.31098">
        <ele>322.9</ele>
        <time>2018-03-04T14:13:04Z</time>
      </trkpt>
      <trkpt lat="43.98417" lon="2.31088">
        <ele>321.8</ele>
        <time>2018-03-04T14:13:11Z</time>
      </trkpt>
      <trkpt lat="43.98412" lon="2.3108">
        <ele>321.4</ele>
        <time>2018-03-04T14:13:15Z</time>
      </trkpt>
      <trkpt lat="43.98407" lon="2.3107">
        <ele>321.7</ele>
        <time>2018-03-04T14:13:19Z</time>
      </trkpt>
      <trkpt lat="43.98402" lon="2.31059">
        <ele>321.2</ele>
        <time>2018-03-04T14:13:24Z</time>
      </trkpt>
      <trkpt lat="43.98395" lon="2.31052">
        <ele>321.3</ele>
        <time>2018-03-04T14:13:28Z</time>
      </trkpt>
      <trkpt lat="43.98388" lon="2.31048">
        <ele>320.5</ele>
        <time>2018-03-04T14:13:34Z</time>
      </trkpt>
      <trkpt lat="43.98381" lon="2.31045">
        <ele>319.4</ele>
        <time>2018-03-04T14:13:38Z</time>
      </trkpt>
      <trkpt lat="43.98373" lon="2.31043">
        <ele>318.2</ele>
        <time>2018-03-04T14:13:45Z</time>
      </trkpt>
      <trkpt lat="43.98367" lon="2.31043">
        <ele>317.5</ele>
        <time>2018-03-04T14:13:52Z</time>
      </trkpt>
      <trkpt lat="43.98359" lon="2.31047">
        <ele>317.4</ele>
        <time>2018-03-04T14:13:59Z</time>
      </trkpt>
      <trkpt lat="43.98352" lon="2.31048">
        <ele>316.9</ele>
        <time>2018-03-04T14:14:06Z</time>
      </trkpt>
      <trkpt lat="43.98344" lon="2.31048">
        <ele>316.4</ele>
        <time>2018-03-04T14:14:12Z</time>
      </trkpt>
      <trkpt lat="43.98337" lon="2.31048">
        <ele>315.6</ele>
        <time>2018-03-04T14:14:19Z</time>
      </trkpt>
      <trkpt lat="43.98328" lon="2.31048">
        <ele>314.9</ele>
        <time>2018-03-04T14:14:24Z</time>
      </trkpt>
      <trkpt lat="43.98322" lon="2.31038">
        <ele>313.9</ele>
        <time>2018-03-04T14:14:29Z</time>
      </trkpt>
      <trkpt lat="43.98322" lon="2.3103">
        <ele>312.1</ele>
        <time>2018-03-04T14:14:36Z</time>
      </trkpt>
      <trkpt lat="43.98326" lon="2.31024">
        <ele>312</ele>
        <time>2018-03-04T14:14:43Z</time>
      </trkpt>
      <trkpt lat="43.98331" lon="2.31015">
        <ele>311.1</ele>
        <time>2018-03-04T14:14:50Z</time>
      </trkpt>
      <trkpt lat="43.98337" lon="2.31007">
        <ele>310.7</ele>
        <time>2018-03-04T14:14:55Z</time>
      </trkpt>
      <trkpt lat="43.98343" lon="2.30999">
        <ele>310.3</ele>
        <time>2018-03-04T14:15:01Z</time>
      </trkpt>
      <trkpt lat="43.98348" lon="2.30991">
        <ele>309.6</ele>
        <time>2018-03-04T14:15:07Z</time>
      </trkpt>
      <trkpt lat="43.98356" lon="2.30986">
        <ele>308.7</ele>
        <time>2018-03-04T14:15:14Z</time>
      </trkpt>
      <trkpt lat="43.98362" lon="2.3098">
        <ele>307.9</ele>
        <time>2018-03-04T14:15:19Z</time>
      </trkpt>
      <trkpt lat="43.98369" lon="2.30974">
        <ele>307.5</ele>
        <time>2018-03-04T14:15:25Z</time>
      </trkpt>
      <trkpt lat="43.98375" lon="2.30968">
        <ele>306.9</ele>
        <time>2018-03-04T14:15:30Z</time>
      </trkpt>
      <trkpt lat="43.98382" lon="2.30962">
        <ele>306.7</ele>
        <time>2018-03-04T14:15:34Z</time>
      </trkpt>
      <trkpt lat="43.98388" lon="2.30956">
        <ele>305.6</ele>
        <time>2018-03-04T14:15:41Z</time>
      </trkpt>
      <trkpt lat="43.98393" lon="2.30948">
        <ele>304.6</ele>
        <time>2018-03-04T14:15:46Z</time>
      </trkpt>
      <trkpt lat="43.98398" lon="2.30939">
        <ele>303.5</ele>
        <time>2018-03-04T14:15:50Z</time>
      </trkpt>
      <trkpt lat="43.98399" lon="2.30929">
        <ele>301.9</ele>
        <time>2018-03-04T14:15:57Z</time>
      </trkpt>
      <trkpt lat="43.98393" lon="2.30921">
        <ele>300.7</ele>
        <time>2018-03-04T14:16:03Z</time>
      </trkpt>
      <trkpt lat="43.98389" lon="2.30915">
        <ele>299.6</ele>
        <time>2018-03-04T14:16:10Z</time>
      </trkpt>
      <trkpt lat="43.98382" lon="2.30909">
        <ele>298</ele>
        <time>2018-03-04T14:16:15Z</time>
      </trkpt>
      <trkpt lat="43.98374" lon="2.30904">
        <ele>296.4</ele>
        <time>2018-03-04T14:16:19Z</time>
      </trkpt>
      <trkpt lat="43.98365" lon="2.30908">
        <ele>298.4</ele>
        <time>2018-03-04T14:16:30Z</time>
      </trkpt>
      <trkpt lat="43.98367" lon="2.30905">
        <ele>299.7</ele>
        <time>2018-03-04T14:16:37Z</time>
      </trkpt>
      <trkpt lat="43.98361" lon="2.30909">
        <ele>299.2</ele>
        <time>2018-03-04T14:16:44Z</time>
      </trkpt>
      <trkpt lat="43.98352" lon="2.30912">
        <ele>297.4</ele>
        <time>2018-03-04T14:16:51Z</time>
      </trkpt>
      <trkpt lat="43.98345" lon="2.30914">
        <ele>295</ele>
        <time>2018-03-04T14:16:58Z</time>
      </trkpt>
      <trkpt lat="43.98338" lon="2.3092">
        <ele>292.8</ele>
        <time>2018-03-04T14:17:03Z</time>
      </trkpt>
      <trkpt lat="43.9833" lon="2.30923">
        <ele>291.1</ele>
        <time>2018-03-04T14:17:08Z</time>
      </trkpt>
      <trkpt lat="43.98322" lon="2.30926">
        <ele>288.2</ele>
        <time>2018-03-04T14:17:14Z</time>
      </trkpt>
      <trkpt lat="43.98315" lon="2.30932">
        <ele>284.9</ele>
        <time>2018-03-04T14:17:21Z</time>
      </trkpt>
      <trkpt lat="43.98308" lon="2.30938">
        <ele>282.5</ele>
        <time>2018-03-04T14:17:26Z</time>
      </trkpt>
      <trkpt lat="43.983" lon="2.3094">
        <ele>282.1</ele>
        <time>2018-03-04T14:17:31Z</time>
      </trkpt>
      <trkpt lat="43.98293" lon="2.30944">
        <ele>281</ele>
        <time>2018-03-04T14:17:37Z</time>
      </trkpt>
      <trkpt lat="43.98285" lon="2.30947">
        <ele>279.7</ele>
        <time>2018-03-04T14:17:44Z</time>
      </trkpt>
      <trkpt lat="43.98281" lon="2.30943">
        <ele>278.7</ele>
        <time>2018-03-04T14:17:51Z</time>
      </trkpt>
      <trkpt lat="43.98272" lon="2.30943">
        <ele>278.1</ele>
        <time>2018-03-04T14:18:23Z</time>
      </trkpt>
      <trkpt lat="43.98265" lon="2.30947">
        <ele>277.8</ele>
        <time>2018-03-04T14:18:30Z</time>
      </trkpt>
      <trkpt lat="43.98258" lon="2.30947">
        <ele>276.9</ele>
        <time>2018-03-04T14:18:38Z</time>
      </trkpt>
      <trkpt lat="43.98253" lon="2.30946">
        <ele>277.1</ele>
        <time>2018-03-04T14:18:45Z</time>
      </trkpt>
      <trkpt lat="43.98253" lon="2.30945">
        <ele>277.3</ele>
        <time>2018-03-04T14:18:52Z</time>
      </trkpt>
      <trkpt lat="43.98251" lon="2.30932">
        <ele>278.5</ele>
        <time>2018-03-04T14:19:11Z</time>
      </trkpt>
      <trkpt lat="43.98248" lon="2.30932">
        <ele>277.5</ele>
        <time>2018-03-04T14:19:18Z</time>
      </trkpt>
      <trkpt lat="43.98241" lon="2.30932">
        <ele>277.7</ele>
        <time>2018-03-04T14:19:25Z</time>
      </trkpt>
      <trkpt lat="43.98234" lon="2.30935">
        <ele>279.3</ele>
        <time>2018-03-04T14:19:30Z</time>
      </trkpt>
      <trkpt lat="43.98225" lon="2.30935">
        <ele>280.7</ele>
        <time>2018-03-04T14:19:37Z</time>
      </trkpt>
      <trkpt lat="43.98221" lon="2.30932">
        <ele>282.1</ele>
        <time>2018-03-04T14:19:44Z</time>
      </trkpt>
      <trkpt lat="43.98216" lon="2.30924">
        <ele>281.9</ele>
        <time>2018-03-04T14:19:51Z</time>
      </trkpt>
      <trkpt lat="43.98212" lon="2.30914">
        <ele>282.3</ele>
        <time>2018-03-04T14:19:58Z</time>
      </trkpt>
      <trkpt lat="43.98209" lon="2.30908">
        <ele>282.7</ele>
        <time>2018-03-04T14:20:05Z</time>
      </trkpt>
      <trkpt lat="43.98205" lon="2.30899">
        <ele>283.9</ele>
        <time>2018-03-04T14:20:12Z</time>
      </trkpt>
      <trkpt lat="43.98201" lon="2.30891">
        <ele>283.9</ele>
        <time>2018-03-04T14:20:20Z</time>
      </trkpt>
      <trkpt lat="43.98201" lon="2.30881">
        <ele>284.2</ele>
        <time>2018-03-04T14:20:25Z</time>
      </trkpt>
      <trkpt lat="43.982" lon="2.3087">
        <ele>284.4</ele>
        <time>2018-03-04T14:20:32Z</time>
      </trkpt>
      <trkpt lat="43.98202" lon="2.30862">
        <ele>285.5</ele>
        <time>2018-03-04T14:20:39Z</time>
      </trkpt>
      <trkpt lat="43.98204" lon="2.30851">
        <ele>286.4</ele>
        <time>2018-03-04T14:20:46Z</time>
      </trkpt>
      <trkpt lat="43.98206" lon="2.30842">
        <ele>286.4</ele>
        <time>2018-03-04T14:20:51Z</time>
      </trkpt>
      <trkpt lat="43.98207" lon="2.3083">
        <ele>287.1</ele>
        <time>2018-03-04T14:20:56Z</time>
      </trkpt>
      <trkpt lat="43.98207" lon="2.3082">
        <ele>286.5</ele>
        <time>2018-03-04T14:21:01Z</time>
      </trkpt>
      <trkpt lat="43.98207" lon="2.30808">
        <ele>286.9</ele>
        <time>2018-03-04T14:21:06Z</time>
      </trkpt>
      <trkpt lat="43.98204" lon="2.30797">
        <ele>286.1</ele>
        <time>2018-03-04T14:21:12Z</time>
      </trkpt>
      <trkpt lat="43.98203" lon="2.30787">
        <ele>286.3</ele>
        <time>2018-03-04T14:21:18Z</time>
      </trkpt>
      <trkpt lat="43.98198" lon="2.30777">
        <ele>286.8</ele>
        <time>2018-03-04T14:21:24Z</time>
      </trkpt>
      <trkpt lat="43.98192" lon="2.3077">
        <ele>286.7</ele>
        <time>2018-03-04T14:21:29Z</time>
      </trkpt>
      <trkpt lat="43.98186" lon="2.30764">
        <ele>285.8</ele>
        <time>2018-03-04T14:21:36Z</time>
      </trkpt>
      <trkpt lat="43.9818" lon="2.30757">
        <ele>284.3</ele>
        <time>2018-03-04T14:21:43Z</time>
      </trkpt>
      <trkpt lat="43.98174" lon="2.30751">
        <ele>284.2</ele>
        <time>2018-03-04T14:21:49Z</time>
      </trkpt>
      <trkpt lat="43.98167" lon="2.30747">
        <ele>283.3</ele>
        <time>2018-03-04T14:21:55Z</time>
      </trkpt>
      <trkpt lat="43.9816" lon="2.30743">
        <ele>283.3</ele>
        <time>2018-03-04T14:22:01Z</time>
      </trkpt>
      <trkpt lat="43.98154" lon="2.30735">
        <ele>283.8</ele>
        <time>2018-03-04T14:22:08Z</time>
      </trkpt>
      <trkpt lat="43.98147" lon="2.30729">
        <ele>283.8</ele>
        <time>2018-03-04T14:22:15Z</time>
      </trkpt>
      <trkpt lat="43.98143" lon="2.30721">
        <ele>284</ele>
        <time>2018-03-04T14:22:19Z</time>
      </trkpt>
      <trkpt lat="43.98137" lon="2.30714">
        <ele>284.3</ele>
        <time>2018-03-04T14:22:26Z</time>
      </trkpt>
      <trkpt lat="43.9813" lon="2.30707">
        <ele>282.9</ele>
        <time>2018-03-04T14:22:32Z</time>
      </trkpt>
      <trkpt lat="43.98124" lon="2.30699">
        <ele>281.4</ele>
        <time>2018-03-04T14:22:39Z</time>
      </trkpt>
      <trkpt lat="43.98117" lon="2.30694">
        <ele>279.2</ele>
        <time>2018-03-04T14:22:46Z</time>
      </trkpt>
      <trkpt lat="43.98111" lon="2.30687">
        <ele>277.2</ele>
        <time>2018-03-04T14:22:52Z</time>
      </trkpt>
      <trkpt lat="43.98104" lon="2.30682">
        <ele>276.1</ele>
        <time>2018-03-04T14:22:59Z</time>
      </trkpt>
      <trkpt lat="43.98099" lon="2.30677">
        <ele>275.3</ele>
        <time>2018-03-04T14:23:06Z</time>
      </trkpt>
      <trkpt lat="43.98092" lon="2.30681">
        <ele>274.4</ele>
        <time>2018-03-04T14:23:13Z</time>
      </trkpt>
      <trkpt lat="43.98091" lon="2.3069">
        <ele>275.3</ele>
        <time>2018-03-04T14:23:20Z</time>
      </trkpt>
      <trkpt lat="43.98094" lon="2.30696">
        <ele>276.5</ele>
        <time>2018-03-04T14:23:27Z</time>
      </trkpt>
      <trkpt lat="43.98095" lon="2.30695">
        <ele>276.7</ele>
        <time>2018-03-04T14:23:34Z</time>
      </trkpt>
      <trkpt lat="43.98096" lon="2.30702">
        <ele>275.9</ele>
        <time>2018-03-04T14:23:48Z</time>
      </trkpt>
      <trkpt lat="43.981" lon="2.30711">
        <ele>274.9</ele>
        <time>2018-03-04T14:24:02Z</time>
      </trkpt>
      <trkpt lat="43.98102" lon="2.3072">
        <ele>274.2</ele>
        <time>2018-03-04T14:24:09Z</time>
      </trkpt>
      <trkpt lat="43.98107" lon="2.30728">
        <ele>275.6</ele>
        <time>2018-03-04T14:24:16Z</time>
      </trkpt>
      <trkpt lat="43.98111" lon="2.3073">
        <ele>276.7</ele>
        <time>2018-03-04T14:24:23Z</time>
      </trkpt>
      <trkpt lat="43.98114" lon="2.30725">
        <ele>277.3</ele>
        <time>2018-03-04T14:24:30Z</time>
      </trkpt>
      <trkpt lat="43.98117" lon="2.30722">
        <ele>278.1</ele>
        <time>2018-03-04T14:24:37Z</time>
      </trkpt>
      <trkpt lat="43.98119" lon="2.30721">
        <ele>278.4</ele>
        <time>2018-03-04T14:24:44Z</time>
      </trkpt>
      <trkpt lat="43.98118" lon="2.30729">
        <ele>279.8</ele>
        <time>2018-03-04T14:25:01Z</time>
      </trkpt>
      <trkpt lat="43.98117" lon="2.30736">
        <ele>280.2</ele>
        <time>2018-03-04T14:25:08Z</time>
      </trkpt>
      <trkpt lat="43.98116" lon="2.3074">
        <ele>280.1</ele>
        <time>2018-03-04T14:25:15Z</time>
      </trkpt>
      <trkpt lat="43.98116" lon="2.30743">
        <ele>280.3</ele>
        <time>2018-03-04T14:25:22Z</time>
      </trkpt>
      <trkpt lat="43.98116" lon="2.30751">
        <ele>280.7</ele>
        <time>2018-03-04T14:25:30Z</time>
      </trkpt>
      <trkpt lat="43.98115" lon="2.30759">
        <ele>281.3</ele>
        <time>2018-03-04T14:25:37Z</time>
      </trkpt>
      <trkpt lat="43.98118" lon="2.30764">
        <ele>282.4</ele>
        <time>2018-03-04T14:25:44Z</time>
      </trkpt>
      <trkpt lat="43.98122" lon="2.30767">
        <ele>284.1</ele>
        <time>2018-03-04T14:25:51Z</time>
      </trkpt>
      <trkpt lat="43.98126" lon="2.30767">
        <ele>286</ele>
        <time>2018-03-04T14:25:58Z</time>
      </trkpt>
      <trkpt lat="43.98127" lon="2.30772">
        <ele>287.6</ele>
        <time>2018-03-04T14:26:05Z</time>
      </trkpt>
      <trkpt lat="43.98125" lon="2.30781">
        <ele>288.6</ele>
        <time>2018-03-04T14:26:13Z</time>
      </trkpt>
      <trkpt lat="43.98122" lon="2.30791">
        <ele>290.7</ele>
        <time>2018-03-04T14:26:19Z</time>
      </trkpt>
      <trkpt lat="43.98123" lon="2.308">
        <ele>292</ele>
        <time>2018-03-04T14:26:26Z</time>
      </trkpt>
      <trkpt lat="43.98123" lon="2.30811">
        <ele>293.4</ele>
        <time>2018-03-04T14:26:31Z</time>
      </trkpt>
      <trkpt lat="43.98126" lon="2.3082">
        <ele>293.9</ele>
        <time>2018-03-04T14:26:37Z</time>
      </trkpt>
      <trkpt lat="43.98128" lon="2.3083">
        <ele>294.5</ele>
        <time>2018-03-04T14:26:43Z</time>
      </trkpt>
      <trkpt lat="43.98131" lon="2.30839">
        <ele>294.5</ele>
        <time>2018-03-04T14:26:50Z</time>
      </trkpt>
      <trkpt lat="43.98131" lon="2.30849">
        <ele>295.3</ele>
        <time>2018-03-04T14:26:56Z</time>
      </trkpt>
      <trkpt lat="43.98134" lon="2.30856">
        <ele>294.7</ele>
        <time>2018-03-04T14:27:03Z</time>
      </trkpt>
      <trkpt lat="43.98136" lon="2.30866">
        <ele>293.1</ele>
        <time>2018-03-04T14:27:10Z</time>
      </trkpt>
      <trkpt lat="43.98138" lon="2.30874">
        <ele>292.8</ele>
        <time>2018-03-04T14:27:17Z</time>
      </trkpt>
      <trkpt lat="43.98141" lon="2.30884">
        <ele>292.4</ele>
        <time>2018-03-04T14:27:24Z</time>
      </trkpt>
      <trkpt lat="43.98143" lon="2.30894">
        <ele>293.2</ele>
        <time>2018-03-04T14:27:29Z</time>
      </trkpt>
      <trkpt lat="43.98146" lon="2.30904">
        <ele>293.7</ele>
        <time>2018-03-04T14:27:34Z</time>
      </trkpt>
      <trkpt lat="43.98149" lon="2.30913">
        <ele>296.4</ele>
        <time>2018-03-04T14:27:39Z</time>
      </trkpt>
      <trkpt lat="43.98149" lon="2.30923">
        <ele>298.6</ele>
        <time>2018-03-04T14:27:45Z</time>
      </trkpt>
      <trkpt lat="43.98153" lon="2.30931">
        <ele>299.9</ele>
        <time>2018-03-04T14:27:52Z</time>
      </trkpt>
      <trkpt lat="43.98155" lon="2.30941">
        <ele>301.8</ele>
        <time>2018-03-04T14:27:59Z</time>
      </trkpt>
      <trkpt lat="43.98157" lon="2.3095">
        <ele>303.9</ele>
        <time>2018-03-04T14:28:06Z</time>
      </trkpt>
      <trkpt lat="43.98158" lon="2.30959">
        <ele>306.3</ele>
        <time>2018-03-04T14:28:13Z</time>
      </trkpt>
      <trkpt lat="43.98161" lon="2.30968">
        <ele>307.8</ele>
        <time>2018-03-04T14:28:20Z</time>
      </trkpt>
      <trkpt lat="43.98163" lon="2.30974">
        <ele>309.1</ele>
        <time>2018-03-04T14:28:27Z</time>
      </trkpt>
      <trkpt lat="43.98165" lon="2.3098">
        <ele>310.2</ele>
        <time>2018-03-04T14:28:34Z</time>
      </trkpt>
      <trkpt lat="43.98169" lon="2.30986">
        <ele>310.6</ele>
        <time>2018-03-04T14:28:41Z</time>
      </trkpt>
      <trkpt lat="43.98172" lon="2.30992">
        <ele>311</ele>
        <time>2018-03-04T14:28:48Z</time>
      </trkpt>
      <trkpt lat="43.98175" lon="2.30998">
        <ele>312.3</ele>
        <time>2018-03-04T14:28:55Z</time>
      </trkpt>
      <trkpt lat="43.9818" lon="2.31003">
        <ele>310.9</ele>
        <time>2018-03-04T14:29:02Z</time>
      </trkpt>
      <trkpt lat="43.98184" lon="2.31009">
        <ele>310.8</ele>
        <time>2018-03-04T14:29:09Z</time>
      </trkpt>
      <trkpt lat="43.98187" lon="2.31017">
        <ele>310.8</ele>
        <time>2018-03-04T14:29:16Z</time>
      </trkpt>
      <trkpt lat="43.98187" lon="2.31023">
        <ele>310.3</ele>
        <time>2018-03-04T14:29:23Z</time>
      </trkpt>
      <trkpt lat="43.98187" lon="2.3103">
        <ele>310</ele>
        <time>2018-03-04T14:29:30Z</time>
      </trkpt>
      <trkpt lat="43.98187" lon="2.31033">
        <ele>309.8</ele>
        <time>2018-03-04T14:29:37Z</time>
      </trkpt>
      <trkpt lat="43.98182" lon="2.31044">
        <ele>310.9</ele>
        <time>2018-03-04T14:29:54Z</time>
      </trkpt>
      <trkpt lat="43.98179" lon="2.31051">
        <ele>311.2</ele>
        <time>2018-03-04T14:30:01Z</time>
      </trkpt>
      <trkpt lat="43.98176" lon="2.31061">
        <ele>311.4</ele>
        <time>2018-03-04T14:30:07Z</time>
      </trkpt>
      <trkpt lat="43.98175" lon="2.31071">
        <ele>312</ele>
        <time>2018-03-04T14:30:11Z</time>
      </trkpt>
      <trkpt lat="43.98172" lon="2.31081">
        <ele>312.3</ele>
        <time>2018-03-04T14:30:17Z</time>
      </trkpt>
      <trkpt lat="43.98169" lon="2.31092">
        <ele>313.7</ele>
        <time>2018-03-04T14:30:23Z</time>
      </trkpt>
      <trkpt lat="43.98165" lon="2.31102">
        <ele>314.7</ele>
        <time>2018-03-04T14:30:28Z</time>
      </trkpt>
      <trkpt lat="43.98161" lon="2.31111">
        <ele>315.3</ele>
        <time>2018-03-04T14:30:33Z</time>
      </trkpt>
      <trkpt lat="43.98157" lon="2.31119">
        <ele>316</ele>
        <time>2018-03-04T14:30:37Z</time>
      </trkpt>
      <trkpt lat="43.98151" lon="2.31127">
        <ele>316.9</ele>
        <time>2018-03-04T14:30:42Z</time>
      </trkpt>
      <trkpt lat="43.98145" lon="2.31134">
        <ele>317.9</ele>
        <time>2018-03-04T14:30:47Z</time>
      </trkpt>
      <trkpt lat="43.98138" lon="2.31137">
        <ele>319.1</ele>
        <time>2018-03-04T14:30:52Z</time>
      </trkpt>
      <trkpt lat="43.9813" lon="2.31142">
        <ele>320.1</ele>
        <time>2018-03-04T14:30:57Z</time>
      </trkpt>
      <trkpt lat="43.98123" lon="2.31146">
        <ele>320.9</ele>
        <time>2018-03-04T14:31:03Z</time>
      </trkpt>
      <trkpt lat="43.98116" lon="2.3115">
        <ele>321.2</ele>
        <time>2018-03-04T14:31:10Z</time>
      </trkpt>
      <trkpt lat="43.98111" lon="2.31154">
        <ele>320.6</ele>
        <time>2018-03-04T14:31:17Z</time>
      </trkpt>
      <trkpt lat="43.98107" lon="2.31161">
        <ele>320.3</ele>
        <time>2018-03-04T14:31:24Z</time>
      </trkpt>
      <trkpt lat="43.981" lon="2.31167">
        <ele>319.7</ele>
        <time>2018-03-04T14:31:30Z</time>
      </trkpt>
      <trkpt lat="43.98094" lon="2.31172">
        <ele>318.5</ele>
        <time>2018-03-04T14:31:36Z</time>
      </trkpt>
      <trkpt lat="43.98086" lon="2.31178">
        <ele>318.2</ele>
        <time>2018-03-04T14:31:41Z</time>
      </trkpt>
      <trkpt lat="43.98079" lon="2.31183">
        <ele>318.7</ele>
        <time>2018-03-04T14:31:46Z</time>
      </trkpt>
      <trkpt lat="43.98072" lon="2.31189">
        <ele>318.9</ele>
        <time>2018-03-04T14:31:51Z</time>
      </trkpt>
      <trkpt lat="43.98066" lon="2.31194">
        <ele>318.2</ele>
        <time>2018-03-04T14:31:56Z</time>
      </trkpt>
      <trkpt lat="43.98059" lon="2.31199">
        <ele>317.3</ele>
        <time>2018-03-04T14:32:02Z</time>
      </trkpt>
      <trkpt lat="43.98053" lon="2.31202">
        <ele>316.3</ele>
        <time>2018-03-04T14:32:09Z</time>
      </trkpt>
      <trkpt lat="43.98046" lon="2.31208">
        <ele>315.4</ele>
        <time>2018-03-04T14:32:15Z</time>
      </trkpt>
      <trkpt lat="43.9804" lon="2.3121">
        <ele>313.3</ele>
        <time>2018-03-04T14:32:22Z</time>
      </trkpt>
      <trkpt lat="43.98034" lon="2.31213">
        <ele>313.2</ele>
        <time>2018-03-04T14:32:29Z</time>
      </trkpt>
      <trkpt lat="43.98028" lon="2.31217">
        <ele>311.9</ele>
        <time>2018-03-04T14:32:36Z</time>
      </trkpt>
      <trkpt lat="43.98026" lon="2.3122">
        <ele>311</ele>
        <time>2018-03-04T14:32:43Z</time>
      </trkpt>
      <trkpt lat="43.98022" lon="2.3122">
        <ele>309.5</ele>
        <time>2018-03-04T14:32:50Z</time>
      </trkpt>
      <trkpt lat="43.98017" lon="2.31226">
        <ele>308.4</ele>
        <time>2018-03-04T14:32:57Z</time>
      </trkpt>
      <trkpt lat="43.98012" lon="2.31234">
        <ele>307.5</ele>
        <time>2018-03-04T14:33:03Z</time>
      </trkpt>
      <trkpt lat="43.98009" lon="2.31244">
        <ele>306.8</ele>
        <time>2018-03-04T14:33:05Z</time>
      </trkpt>
      <trkpt lat="43.98004" lon="2.31252">
        <ele>306.1</ele>
        <time>2018-03-04T14:33:10Z</time>
      </trkpt>
      <trkpt lat="43.97999" lon="2.31262">
        <ele>304.6</ele>
        <time>2018-03-04T14:33:15Z</time>
      </trkpt>
      <trkpt lat="43.97995" lon="2.31271">
        <ele>304</ele>
        <time>2018-03-04T14:33:20Z</time>
      </trkpt>
      <trkpt lat="43.9799" lon="2.31279">
        <ele>303.2</ele>
        <time>2018-03-04T14:33:24Z</time>
      </trkpt>
      <trkpt lat="43.97985" lon="2.31291">
        <ele>303.1</ele>
        <time>2018-03-04T14:33:29Z</time>
      </trkpt>
      <trkpt lat="43.97979" lon="2.31299">
        <ele>302.7</ele>
        <time>2018-03-04T14:33:34Z</time>
      </trkpt>
      <trkpt lat="43.97971" lon="2.313">
        <ele>301.1</ele>
        <time>2018-03-04T14:33:38Z</time>
      </trkpt>
      <trkpt lat="43.97963" lon="2.31299">
        <ele>300</ele>
        <time>2018-03-04T14:33:44Z</time>
      </trkpt>
      <trkpt lat="43.97956" lon="2.31299">
        <ele>299.8</ele>
        <time>2018-03-04T14:33:51Z</time>
      </trkpt>
      <trkpt lat="43.97952" lon="2.31303">
        <ele>298.7</ele>
        <time>2018-03-04T14:33:58Z</time>
      </trkpt>
      <trkpt lat="43.97952" lon="2.31306">
        <ele>297.5</ele>
        <time>2018-03-04T14:34:05Z</time>
      </trkpt>
      <trkpt lat="43.97949" lon="2.31318">
        <ele>295.4</ele>
        <time>2018-03-04T14:34:12Z</time>
      </trkpt>
      <trkpt lat="43.97947" lon="2.31319">
        <ele>295.1</ele>
        <time>2018-03-04T14:34:19Z</time>
      </trkpt>
      <trkpt lat="43.97952" lon="2.31328">
        <ele>294.6</ele>
        <time>2018-03-04T14:34:31Z</time>
      </trkpt>
      <trkpt lat="43.97955" lon="2.31331">
        <ele>294.2</ele>
        <time>2018-03-04T14:34:38Z</time>
      </trkpt>
      <trkpt lat="43.97952" lon="2.31337">
        <ele>293.9</ele>
        <time>2018-03-04T14:34:45Z</time>
      </trkpt>
      <trkpt lat="43.97949" lon="2.31349">
        <ele>293.2</ele>
        <time>2018-03-04T14:34:52Z</time>
      </trkpt>
      <trkpt lat="43.97948" lon="2.31353">
        <ele>293.7</ele>
        <time>2018-03-04T14:34:59Z</time>
      </trkpt>
      <trkpt lat="43.97954" lon="2.31363">
        <ele>294.1</ele>
        <time>2018-03-04T14:35:08Z</time>
      </trkpt>
      <trkpt lat="43.97959" lon="2.3137">
        <ele>293.6</ele>
        <time>2018-03-04T14:35:15Z</time>
      </trkpt>
      <trkpt lat="43.97958" lon="2.3138">
        <ele>292.9</ele>
        <time>2018-03-04T14:35:21Z</time>
      </trkpt>
      <trkpt lat="43.97956" lon="2.31383">
        <ele>292.8</ele>
        <time>2018-03-04T14:35:28Z</time>
      </trkpt>
      <trkpt lat="43.97949" lon="2.31391">
        <ele>292.6</ele>
        <time>2018-03-04T14:35:31Z</time>
      </trkpt>
      <trkpt lat="43.97946" lon="2.31393">
        <ele>292.5</ele>
        <time>2018-03-04T14:35:38Z</time>
      </trkpt>
      <trkpt lat="43.97937" lon="2.31396">
        <ele>292.8</ele>
        <time>2018-03-04T14:35:48Z</time>
      </trkpt>
      <trkpt lat="43.97937" lon="2.31398">
        <ele>292.7</ele>
        <time>2018-03-04T14:35:55Z</time>
      </trkpt>
      <trkpt lat="43.97928" lon="2.31404">
        <ele>293</ele>
        <time>2018-03-04T14:36:01Z</time>
      </trkpt>
      <trkpt lat="43.97923" lon="2.31411">
        <ele>293.5</ele>
        <time>2018-03-04T14:36:08Z</time>
      </trkpt>
      <trkpt lat="43.97921" lon="2.31418">
        <ele>293.8</ele>
        <time>2018-03-04T14:36:15Z</time>
      </trkpt>
      <trkpt lat="43.97921" lon="2.31425">
        <ele>294.2</ele>
        <time>2018-03-04T14:36:22Z</time>
      </trkpt>
      <trkpt lat="43.97919" lon="2.31429">
        <ele>294.7</ele>
        <time>2018-03-04T14:36:29Z</time>
      </trkpt>
      <trkpt lat="43.97916" lon="2.31436">
        <ele>294.6</ele>
        <time>2018-03-04T14:36:36Z</time>
      </trkpt>
      <trkpt lat="43.97912" lon="2.31445">
        <ele>295.6</ele>
        <time>2018-03-04T14:36:43Z</time>
      </trkpt>
      <trkpt lat="43.9791" lon="2.31452">
        <ele>296.9</ele>
        <time>2018-03-04T14:36:50Z</time>
      </trkpt>
      <trkpt lat="43.9791" lon="2.31452">
        <ele>297.3</ele>
        <time>2018-03-04T14:36:58Z</time>
      </trkpt>
      <trkpt lat="43.97903" lon="2.31453">
        <ele>296.5</ele>
        <time>2018-03-04T14:37:06Z</time>
      </trkpt>
      <trkpt lat="43.97898" lon="2.31452">
        <ele>291.3</ele>
        <time>2018-03-04T14:37:13Z</time>
      </trkpt>
      <trkpt lat="43.97896" lon="2.31449">
        <ele>285.9</ele>
        <time>2018-03-04T14:37:20Z</time>
      </trkpt>
      <trkpt lat="43.97899" lon="2.31453">
        <ele>283.2</ele>
        <time>2018-03-04T14:37:27Z</time>
      </trkpt>
      <trkpt lat="43.97903" lon="2.31464">
        <ele>283.1</ele>
        <time>2018-03-04T14:37:35Z</time>
      </trkpt>
      <trkpt lat="43.97907" lon="2.31475">
        <ele>283.1</ele>
        <time>2018-03-04T14:37:37Z</time>
      </trkpt>
      <trkpt lat="43.97912" lon="2.31486">
        <ele>283.1</ele>
        <time>2018-03-04T14:37:39Z</time>
      </trkpt>
      <trkpt lat="43.97913" lon="2.31474">
        <ele>283.9</ele>
        <time>2018-03-04T14:37:42Z</time>
      </trkpt>
      <trkpt lat="43.97912" lon="2.31483">
        <ele>286.7</ele>
        <time>2018-03-04T14:37:49Z</time>
      </trkpt>
      <trkpt lat="43.97909" lon="2.31495">
        <ele>289.7</ele>
        <time>2018-03-04T14:37:55Z</time>
      </trkpt>
      <trkpt lat="43.97906" lon="2.31505">
        <ele>292.9</ele>
        <time>2018-03-04T14:37:59Z</time>
      </trkpt>
      <trkpt lat="43.97905" lon="2.31512">
        <ele>295.8</ele>
        <time>2018-03-04T14:38:06Z</time>
      </trkpt>
      <trkpt lat="43.97907" lon="2.31516">
        <ele>297.7</ele>
        <time>2018-03-04T14:38:13Z</time>
      </trkpt>
      <trkpt lat="43.97912" lon="2.31525">
        <ele>299.3</ele>
        <time>2018-03-04T14:38:20Z</time>
      </trkpt>
      <trkpt lat="43.97912" lon="2.31533">
        <ele>300.7</ele>
        <time>2018-03-04T14:38:27Z</time>
      </trkpt>
      <trkpt lat="43.97918" lon="2.31541">
        <ele>301.8</ele>
        <time>2018-03-04T14:38:34Z</time>
      </trkpt>
      <trkpt lat="43.9792" lon="2.31548">
        <ele>302.7</ele>
        <time>2018-03-04T14:38:41Z</time>
      </trkpt>
      <trkpt lat="43.97918" lon="2.31559">
        <ele>304.2</ele>
        <time>2018-03-04T14:38:46Z</time>
      </trkpt>
      <trkpt lat="43.9792" lon="2.31569">
        <ele>305.8</ele>
        <time>2018-03-04T14:38:51Z</time>
      </trkpt>
      <trkpt lat="43.97925" lon="2.31574">
        <ele>305.6</ele>
        <time>2018-03-04T14:38:58Z</time>
      </trkpt>
      <trkpt lat="43.97925" lon="2.31586">
        <ele>304.7</ele>
        <time>2018-03-04T14:39:04Z</time>
      </trkpt>
      <trkpt lat="43.97923" lon="2.31597">
        <ele>304.6</ele>
        <time>2018-03-04T14:39:09Z</time>
      </trkpt>
      <trkpt lat="43.97923" lon="2.31607">
        <ele>303.8</ele>
        <time>2018-03-04T14:39:14Z</time>
      </trkpt>
      <trkpt lat="43.97928" lon="2.31616">
        <ele>303.5</ele>
        <time>2018-03-04T14:39:19Z</time>
      </trkpt>
      <trkpt lat="43.97934" lon="2.31624">
        <ele>304.3</ele>
        <time>2018-03-04T14:39:25Z</time>
      </trkpt>
      <trkpt lat="43.97943" lon="2.31627">
        <ele>305.8</ele>
        <time>2018-03-04T14:39:29Z</time>
      </trkpt>
      <trkpt lat="43.97944" lon="2.3163">
        <ele>306.4</ele>
        <time>2018-03-04T14:39:36Z</time>
      </trkpt>
      <trkpt lat="43.97942" lon="2.31634">
        <ele>305.6</ele>
        <time>2018-03-04T14:39:43Z</time>
      </trkpt>
      <trkpt lat="43.9794" lon="2.31631">
        <ele>310.4</ele>
        <time>2018-03-04T14:39:56Z</time>
      </trkpt>
      <trkpt lat="43.97928" lon="2.31639">
        <ele>313.7</ele>
        <time>2018-03-04T14:40:02Z</time>
      </trkpt>
      <trkpt lat="43.97929" lon="2.3164">
        <ele>314.4</ele>
        <time>2018-03-04T14:40:09Z</time>
      </trkpt>
      <trkpt lat="43.97919" lon="2.31641">
        <ele>319.8</ele>
        <time>2018-03-04T14:40:19Z</time>
      </trkpt>
      <trkpt lat="43.97926" lon="2.31645">
        <ele>326.4</ele>
        <time>2018-03-04T14:41:38Z</time>
      </trkpt>
      <trkpt lat="43.97935" lon="2.31649">
        <ele>327</ele>
        <time>2018-03-04T14:41:43Z</time>
      </trkpt>
      <trkpt lat="43.97942" lon="2.31656">
        <ele>327.8</ele>
        <time>2018-03-04T14:41:49Z</time>
      </trkpt>
      <trkpt lat="43.97947" lon="2.31664">
        <ele>328.2</ele>
        <time>2018-03-04T14:41:54Z</time>
      </trkpt>
      <trkpt lat="43.9795" lon="2.31674">
        <ele>328.3</ele>
        <time>2018-03-04T14:42:01Z</time>
      </trkpt>
      <trkpt lat="43.97952" lon="2.31682">
        <ele>327.2</ele>
        <time>2018-03-04T14:42:08Z</time>
      </trkpt>
      <trkpt lat="43.97959" lon="2.31685">
        <ele>325.1</ele>
        <time>2018-03-04T14:42:15Z</time>
      </trkpt>
      <trkpt lat="43.97962" lon="2.31696">
        <ele>321.5</ele>
        <time>2018-03-04T14:42:22Z</time>
      </trkpt>
      <trkpt lat="43.97964" lon="2.31707">
        <ele>319.2</ele>
        <time>2018-03-04T14:42:27Z</time>
      </trkpt>
      <trkpt lat="43.97961" lon="2.31718">
        <ele>317.3</ele>
        <time>2018-03-04T14:42:33Z</time>
      </trkpt>
      <trkpt lat="43.97963" lon="2.3173">
        <ele>315</ele>
        <time>2018-03-04T14:42:40Z</time>
      </trkpt>
      <trkpt lat="43.9796" lon="2.31741">
        <ele>313.6</ele>
        <time>2018-03-04T14:42:47Z</time>
      </trkpt>
      <trkpt lat="43.97961" lon="2.31751">
        <ele>312.8</ele>
        <time>2018-03-04T14:42:52Z</time>
      </trkpt>
      <trkpt lat="43.9796" lon="2.31763">
        <ele>312.1</ele>
        <time>2018-03-04T14:42:56Z</time>
      </trkpt>
      <trkpt lat="43.97961" lon="2.31774">
        <ele>312</ele>
        <time>2018-03-04T14:43:02Z</time>
      </trkpt>
      <trkpt lat="43.97959" lon="2.31784">
        <ele>312.3</ele>
        <time>2018-03-04T14:43:08Z</time>
      </trkpt>
      <trkpt lat="43.97959" lon="2.31795">
        <ele>312.1</ele>
        <time>2018-03-04T14:43:15Z</time>
      </trkpt>
      <trkpt lat="43.97954" lon="2.31804">
        <ele>311.9</ele>
        <time>2018-03-04T14:43:21Z</time>
      </trkpt>
      <trkpt lat="43.97944" lon="2.31811">
        <ele>314.3</ele>
        <time>2018-03-04T14:43:26Z</time>
      </trkpt>
      <trkpt lat="43.97943" lon="2.31814">
        <ele>315.4</ele>
        <time>2018-03-04T14:43:33Z</time>
      </trkpt>
      <trkpt lat="43.9794" lon="2.31815">
        <ele>315.4</ele>
        <time>2018-03-04T14:43:40Z</time>
      </trkpt>
      <trkpt lat="43.97942" lon="2.31831">
        <ele>319.9</ele>
        <time>2018-03-04T14:44:10Z</time>
      </trkpt>
      <trkpt lat="43.97943" lon="2.31839">
        <ele>319.3</ele>
        <time>2018-03-04T14:44:17Z</time>
      </trkpt>
      <trkpt lat="43.97942" lon="2.3185">
        <ele>319.1</ele>
        <time>2018-03-04T14:44:24Z</time>
      </trkpt>
      <trkpt lat="43.9794" lon="2.3186">
        <ele>318.6</ele>
        <time>2018-03-04T14:44:31Z</time>
      </trkpt>
      <trkpt lat="43.97935" lon="2.31868">
        <ele>318.3</ele>
        <time>2018-03-04T14:44:36Z</time>
      </trkpt>
      <trkpt lat="43.9793" lon="2.31877">
        <ele>317.7</ele>
        <time>2018-03-04T14:44:41Z</time>
      </trkpt>
      <trkpt lat="43.97924" lon="2.31885">
        <ele>317.5</ele>
        <time>2018-03-04T14:44:45Z</time>
      </trkpt>
      <trkpt lat="43.97919" lon="2.31892">
        <ele>317.3</ele>
        <time>2018-03-04T14:44:49Z</time>
      </trkpt>
      <trkpt lat="43.97916" lon="2.31901">
        <ele>317.3</ele>
        <time>2018-03-04T14:44:53Z</time>
      </trkpt>
      <trkpt lat="43.97913" lon="2.31912">
        <ele>315.7</ele>
        <time>2018-03-04T14:44:59Z</time>
      </trkpt>
      <trkpt lat="43.97911" lon="2.31922">
        <ele>314.1</ele>
        <time>2018-03-04T14:45:05Z</time>
      </trkpt>
      <trkpt lat="43.9791" lon="2.31928">
        <ele>312.9</ele>
        <time>2018-03-04T14:45:12Z</time>
      </trkpt>
      <trkpt lat="43.97907" lon="2.3194">
        <ele>311.8</ele>
        <time>2018-03-04T14:45:18Z</time>
      </trkpt>
      <trkpt lat="43.97905" lon="2.3195">
        <ele>311.2</ele>
        <time>2018-03-04T14:45:22Z</time>
      </trkpt>
      <trkpt lat="43.97904" lon="2.3196">
        <ele>310.3</ele>
        <time>2018-03-04T14:45:29Z</time>
      </trkpt>
      <trkpt lat="43.97904" lon="2.31961">
        <ele>310.3</ele>
        <time>2018-03-04T14:45:36Z</time>
      </trkpt>
      <trkpt lat="43.97903" lon="2.31976">
        <ele>309.6</ele>
        <time>2018-03-04T14:45:42Z</time>
      </trkpt>
      <trkpt lat="43.97902" lon="2.31981">
        <ele>308.9</ele>
        <time>2018-03-04T14:45:49Z</time>
      </trkpt>
      <trkpt lat="43.97898" lon="2.31996">
        <ele>307.2</ele>
        <time>2018-03-04T14:45:55Z</time>
      </trkpt>
      <trkpt lat="43.97898" lon="2.32001">
        <ele>307</ele>
        <time>2018-03-04T14:46:02Z</time>
      </trkpt>
      <trkpt lat="43.97901" lon="2.32004">
        <ele>306.7</ele>
        <time>2018-03-04T14:46:09Z</time>
      </trkpt>
      <trkpt lat="43.97902" lon="2.32001">
        <ele>305.7</ele>
        <time>2018-03-04T14:46:16Z</time>
      </trkpt>
      <trkpt lat="43.979" lon="2.31996">
        <ele>305</ele>
        <time>2018-03-04T14:46:23Z</time>
      </trkpt>
      <trkpt lat="43.97895" lon="2.3199">
        <ele>304.7</ele>
        <time>2018-03-04T14:46:30Z</time>
      </trkpt>
      <trkpt lat="43.97892" lon="2.31985">
        <ele>305.1</ele>
        <time>2018-03-04T14:46:37Z</time>
      </trkpt>
      <trkpt lat="43.97888" lon="2.31981">
        <ele>304</ele>
        <time>2018-03-04T14:46:44Z</time>
      </trkpt>
      <trkpt lat="43.97883" lon="2.31974">
        <ele>305.7</ele>
        <time>2018-03-04T14:46:51Z</time>
      </trkpt>
      <trkpt lat="43.97881" lon="2.31965">
        <ele>307.7</ele>
        <time>2018-03-04T14:46:58Z</time>
      </trkpt>
      <trkpt lat="43.97882" lon="2.31953">
        <ele>310.6</ele>
        <time>2018-03-04T14:47:04Z</time>
      </trkpt>
      <trkpt lat="43.97884" lon="2.31943">
        <ele>313.1</ele>
        <time>2018-03-04T14:47:11Z</time>
      </trkpt>
      <trkpt lat="43.97884" lon="2.31933">
        <ele>315.7</ele>
        <time>2018-03-04T14:47:18Z</time>
      </trkpt>
      <trkpt lat="43.97881" lon="2.31925">
        <ele>318.9</ele>
        <time>2018-03-04T14:47:25Z</time>
      </trkpt>
      <trkpt lat="43.97876" lon="2.31916">
        <ele>321.3</ele>
        <time>2018-03-04T14:47:32Z</time>
      </trkpt>
      <trkpt lat="43.97874" lon="2.31908">
        <ele>324</ele>
        <time>2018-03-04T14:47:39Z</time>
      </trkpt>
      <trkpt lat="43.97869" lon="2.319">
        <ele>327.8</ele>
        <time>2018-03-04T14:47:46Z</time>
      </trkpt>
      <trkpt lat="43.97867" lon="2.31894">
        <ele>329.7</ele>
        <time>2018-03-04T14:47:53Z</time>
      </trkpt>
      <trkpt lat="43.97861" lon="2.31887">
        <ele>332.4</ele>
        <time>2018-03-04T14:47:59Z</time>
      </trkpt>
      <trkpt lat="43.97858" lon="2.31882">
        <ele>334</ele>
        <time>2018-03-04T14:48:06Z</time>
      </trkpt>
      <trkpt lat="43.97854" lon="2.31879">
        <ele>335.3</ele>
        <time>2018-03-04T14:48:12Z</time>
      </trkpt>
      <trkpt lat="43.97847" lon="2.31873">
        <ele>336.4</ele>
        <time>2018-03-04T14:48:18Z</time>
      </trkpt>
      <trkpt lat="43.97841" lon="2.31868">
        <ele>337.6</ele>
        <time>2018-03-04T14:48:25Z</time>
      </trkpt>
      <trkpt lat="43.97837" lon="2.31858">
        <ele>338</ele>
        <time>2018-03-04T14:48:32Z</time>
      </trkpt>
      <trkpt lat="43.97831" lon="2.31853">
        <ele>339.9</ele>
        <time>2018-03-04T14:48:39Z</time>
      </trkpt>
      <trkpt lat="43.97828" lon="2.31846">
        <ele>340.8</ele>
        <time>2018-03-04T14:48:46Z</time>
      </trkpt>
      <trkpt lat="43.97822" lon="2.31841">
        <ele>341.6</ele>
        <time>2018-03-04T14:48:53Z</time>
      </trkpt>
      <trkpt lat="43.97815" lon="2.31838">
        <ele>342.7</ele>
        <time>2018-03-04T14:49:00Z</time>
      </trkpt>
      <trkpt lat="43.97809" lon="2.31831">
        <ele>343.6</ele>
        <time>2018-03-04T14:49:07Z</time>
      </trkpt>
      <trkpt lat="43.97802" lon="2.31826">
        <ele>344.4</ele>
        <time>2018-03-04T14:49:14Z</time>
      </trkpt>
      <trkpt lat="43.97797" lon="2.31819">
        <ele>344.9</ele>
        <time>2018-03-04T14:49:20Z</time>
      </trkpt>
      <trkpt lat="43.9779" lon="2.31811">
        <ele>346.5</ele>
        <time>2018-03-04T14:49:26Z</time>
      </trkpt>
      <trkpt lat="43.97785" lon="2.31806">
        <ele>347.1</ele>
        <time>2018-03-04T14:49:34Z</time>
      </trkpt>
      <trkpt lat="43.97781" lon="2.31799">
        <ele>347.6</ele>
        <time>2018-03-04T14:49:40Z</time>
      </trkpt>
      <trkpt lat="43.97775" lon="2.31793">
        <ele>348.2</ele>
        <time>2018-03-04T14:49:47Z</time>
      </trkpt>
      <trkpt lat="43.9777" lon="2.31789">
        <ele>348.2</ele>
        <time>2018-03-04T14:49:54Z</time>
      </trkpt>
      <trkpt lat="43.97764" lon="2.31782">
        <ele>348</ele>
        <time>2018-03-04T14:49:59Z</time>
      </trkpt>
      <trkpt lat="43.97755" lon="2.31777">
        <ele>348.5</ele>
        <time>2018-03-04T14:50:04Z</time>
      </trkpt>
      <trkpt lat="43.97747" lon="2.31776">
        <ele>351.3</ele>
        <time>2018-03-04T14:50:10Z</time>
      </trkpt>
      <trkpt lat="43.97742" lon="2.31783">
        <ele>353.6</ele>
        <time>2018-03-04T14:50:17Z</time>
      </trkpt>
      <trkpt lat="43.97736" lon="2.3179">
        <ele>355.1</ele>
        <time>2018-03-04T14:50:24Z</time>
      </trkpt>
      <trkpt lat="43.9773" lon="2.31795">
        <ele>354.7</ele>
        <time>2018-03-04T14:50:31Z</time>
      </trkpt>
      <trkpt lat="43.97725" lon="2.31802">
        <ele>355.3</ele>
        <time>2018-03-04T14:50:38Z</time>
      </trkpt>
      <trkpt lat="43.97719" lon="2.3181">
        <ele>355.7</ele>
        <time>2018-03-04T14:50:44Z</time>
      </trkpt>
      <trkpt lat="43.97713" lon="2.31815">
        <ele>356.1</ele>
        <time>2018-03-04T14:50:51Z</time>
      </trkpt>
      <trkpt lat="43.97706" lon="2.3182">
        <ele>356.8</ele>
        <time>2018-03-04T14:50:58Z</time>
      </trkpt>
      <trkpt lat="43.977" lon="2.31826">
        <ele>357</ele>
        <time>2018-03-04T14:51:05Z</time>
      </trkpt>
      <trkpt lat="43.97695" lon="2.31836">
        <ele>357</ele>
        <time>2018-03-04T14:51:12Z</time>
      </trkpt>
      <trkpt lat="43.97691" lon="2.31842">
        <ele>356.9</ele>
        <time>2018-03-04T14:51:19Z</time>
      </trkpt>
      <trkpt lat="43.97686" lon="2.31849">
        <ele>356.6</ele>
        <time>2018-03-04T14:51:26Z</time>
      </trkpt>
      <trkpt lat="43.97681" lon="2.31851">
        <ele>355.8</ele>
        <time>2018-03-04T14:51:33Z</time>
      </trkpt>
      <trkpt lat="43.97675" lon="2.31857">
        <ele>355.5</ele>
        <time>2018-03-04T14:51:39Z</time>
      </trkpt>
      <trkpt lat="43.97669" lon="2.31865">
        <ele>354.4</ele>
        <time>2018-03-04T14:51:45Z</time>
      </trkpt>
      <trkpt lat="43.97664" lon="2.31873">
        <ele>353.9</ele>
        <time>2018-03-04T14:51:50Z</time>
      </trkpt>
      <trkpt lat="43.97657" lon="2.31878">
        <ele>353.5</ele>
        <time>2018-03-04T14:51:57Z</time>
      </trkpt>
      <trkpt lat="43.9765" lon="2.31883">
        <ele>353.3</ele>
        <time>2018-03-04T14:52:04Z</time>
      </trkpt>
      <trkpt lat="43.97646" lon="2.31891">
        <ele>353.3</ele>
        <time>2018-03-04T14:52:09Z</time>
      </trkpt>
      <trkpt lat="43.97641" lon="2.31897">
        <ele>353.1</ele>
        <time>2018-03-04T14:52:16Z</time>
      </trkpt>
      <trkpt lat="43.97636" lon="2.31903">
        <ele>353.1</ele>
        <time>2018-03-04T14:52:23Z</time>
      </trkpt>
      <trkpt lat="43.97632" lon="2.31913">
        <ele>353</ele>
        <time>2018-03-04T14:52:29Z</time>
      </trkpt>
      <trkpt lat="43.97627" lon="2.31923">
        <ele>354</ele>
        <time>2018-03-04T14:52:34Z</time>
      </trkpt>
      <trkpt lat="43.97628" lon="2.31934">
        <ele>353.6</ele>
        <time>2018-03-04T14:52:42Z</time>
      </trkpt>
      <trkpt lat="43.97625" lon="2.31944">
        <ele>353.6</ele>
        <time>2018-03-04T14:52:46Z</time>
      </trkpt>
      <trkpt lat="43.97622" lon="2.31954">
        <ele>353.9</ele>
        <time>2018-03-04T14:52:51Z</time>
      </trkpt>
      <trkpt lat="43.97617" lon="2.31961">
        <ele>354.4</ele>
        <time>2018-03-04T14:52:56Z</time>
      </trkpt>
      <trkpt lat="43.97616" lon="2.31971">
        <ele>355.2</ele>
        <time>2018-03-04T14:53:03Z</time>
      </trkpt>
      <trkpt lat="43.97611" lon="2.31979">
        <ele>355.7</ele>
        <time>2018-03-04T14:53:10Z</time>
      </trkpt>
      <trkpt lat="43.97606" lon="2.31988">
        <ele>355.5</ele>
        <time>2018-03-04T14:53:16Z</time>
      </trkpt>
      <trkpt lat="43.97603" lon="2.31999">
        <ele>355.2</ele>
        <time>2018-03-04T14:53:22Z</time>
      </trkpt>
      <trkpt lat="43.97599" lon="2.32014">
        <ele>354.6</ele>
        <time>2018-03-04T14:53:28Z</time>
      </trkpt>
      <trkpt lat="43.97596" lon="2.32027">
        <ele>355.9</ele>
        <time>2018-03-04T14:53:31Z</time>
      </trkpt>
      <trkpt lat="43.97596" lon="2.3204">
        <ele>358.4</ele>
        <time>2018-03-04T14:53:35Z</time>
      </trkpt>
      <trkpt lat="43.97594" lon="2.32043">
        <ele>359</ele>
        <time>2018-03-04T14:53:42Z</time>
      </trkpt>
      <trkpt lat="43.97594" lon="2.32054">
        <ele>358.7</ele>
        <time>2018-03-04T14:54:04Z</time>
      </trkpt>
      <trkpt lat="43.97596" lon="2.32065">
        <ele>357.4</ele>
        <time>2018-03-04T14:54:10Z</time>
      </trkpt>
      <trkpt lat="43.97596" lon="2.32076">
        <ele>356.2</ele>
        <time>2018-03-04T14:54:15Z</time>
      </trkpt>
      <trkpt lat="43.97602" lon="2.32085">
        <ele>355.5</ele>
        <time>2018-03-04T14:54:21Z</time>
      </trkpt>
      <trkpt lat="43.97605" lon="2.32095">
        <ele>355.2</ele>
        <time>2018-03-04T14:54:26Z</time>
      </trkpt>
      <trkpt lat="43.97608" lon="2.32105">
        <ele>356</ele>
        <time>2018-03-04T14:54:31Z</time>
      </trkpt>
      <trkpt lat="43.97612" lon="2.32113">
        <ele>356.9</ele>
        <time>2018-03-04T14:54:37Z</time>
      </trkpt>
      <trkpt lat="43.97618" lon="2.32121">
        <ele>359</ele>
        <time>2018-03-04T14:54:42Z</time>
      </trkpt>
      <trkpt lat="43.97626" lon="2.32125">
        <ele>361</ele>
        <time>2018-03-04T14:54:48Z</time>
      </trkpt>
      <trkpt lat="43.97633" lon="2.32129">
        <ele>363</ele>
        <time>2018-03-04T14:54:54Z</time>
      </trkpt>
      <trkpt lat="43.9764" lon="2.32132">
        <ele>363.6</ele>
        <time>2018-03-04T14:54:59Z</time>
      </trkpt>
      <trkpt lat="43.97647" lon="2.32133">
        <ele>365.4</ele>
        <time>2018-03-04T14:55:05Z</time>
      </trkpt>
      <trkpt lat="43.97655" lon="2.32132">
        <ele>366.7</ele>
        <time>2018-03-04T14:55:12Z</time>
      </trkpt>
      <trkpt lat="43.97662" lon="2.32131">
        <ele>366.4</ele>
        <time>2018-03-04T14:55:18Z</time>
      </trkpt>
      <trkpt lat="43.9767" lon="2.32129">
        <ele>368.2</ele>
        <time>2018-03-04T14:55:24Z</time>
      </trkpt>
      <trkpt lat="43.97678" lon="2.32129">
        <ele>368</ele>
        <time>2018-03-04T14:55:31Z</time>
      </trkpt>
      <trkpt lat="43.97686" lon="2.32127">
        <ele>368.1</ele>
        <time>2018-03-04T14:55:36Z</time>
      </trkpt>
      <trkpt lat="43.97693" lon="2.32122">
        <ele>368.7</ele>
        <time>2018-03-04T14:55:42Z</time>
      </trkpt>
      <trkpt lat="43.977" lon="2.32119">
        <ele>368</ele>
        <time>2018-03-04T14:55:49Z</time>
      </trkpt>
      <trkpt lat="43.97709" lon="2.32121">
        <ele>368</ele>
        <time>2018-03-04T14:55:56Z</time>
      </trkpt>
      <trkpt lat="43.97714" lon="2.32127">
        <ele>367.8</ele>
        <time>2018-03-04T14:56:03Z</time>
      </trkpt>
      <trkpt lat="43.97717" lon="2.32136">
        <ele>367</ele>
        <time>2018-03-04T14:56:10Z</time>
      </trkpt>
      <trkpt lat="43.97719" lon="2.32144">
        <ele>365.6</ele>
        <time>2018-03-04T14:56:16Z</time>
      </trkpt>
      <trkpt lat="43.97719" lon="2.32154">
        <ele>364</ele>
        <time>2018-03-04T14:56:24Z</time>
      </trkpt>
      <trkpt lat="43.97717" lon="2.32161">
        <ele>362.7</ele>
        <time>2018-03-04T14:56:30Z</time>
      </trkpt>
      <trkpt lat="43.97712" lon="2.32165">
        <ele>361.7</ele>
        <time>2018-03-04T14:56:37Z</time>
      </trkpt>
      <trkpt lat="43.97707" lon="2.32169">
        <ele>360.3</ele>
        <time>2018-03-04T14:56:45Z</time>
      </trkpt>
      <trkpt lat="43.97701" lon="2.3217">
        <ele>357.8</ele>
        <time>2018-03-04T14:56:52Z</time>
      </trkpt>
      <trkpt lat="43.97694" lon="2.32173">
        <ele>355.6</ele>
        <time>2018-03-04T14:56:57Z</time>
      </trkpt>
      <trkpt lat="43.97686" lon="2.32174">
        <ele>354</ele>
        <time>2018-03-04T14:57:05Z</time>
      </trkpt>
      <trkpt lat="43.97679" lon="2.32174">
        <ele>352.1</ele>
        <time>2018-03-04T14:57:10Z</time>
      </trkpt>
      <trkpt lat="43.9767" lon="2.32176">
        <ele>350.8</ele>
        <time>2018-03-04T14:57:17Z</time>
      </trkpt>
      <trkpt lat="43.97663" lon="2.32178">
        <ele>349.8</ele>
        <time>2018-03-04T14:57:24Z</time>
      </trkpt>
      <trkpt lat="43.97656" lon="2.32178">
        <ele>349</ele>
        <time>2018-03-04T14:57:29Z</time>
      </trkpt>
      <trkpt lat="43.97648" lon="2.32181">
        <ele>348</ele>
        <time>2018-03-04T14:57:37Z</time>
      </trkpt>
      <trkpt lat="43.97643" lon="2.32181">
        <ele>346.2</ele>
        <time>2018-03-04T14:57:44Z</time>
      </trkpt>
      <trkpt lat="43.97639" lon="2.32193">
        <ele>345.7</ele>
        <time>2018-03-04T14:57:48Z</time>
      </trkpt>
      <trkpt lat="43.97641" lon="2.32202">
        <ele>344.3</ele>
        <time>2018-03-04T14:57:54Z</time>
      </trkpt>
      <trkpt lat="43.97643" lon="2.3221">
        <ele>343</ele>
        <time>2018-03-04T14:58:02Z</time>
      </trkpt>
      <trkpt lat="43.97645" lon="2.32214">
        <ele>342.7</ele>
        <time>2018-03-04T14:58:08Z</time>
      </trkpt>
      <trkpt lat="43.97643" lon="2.32217">
        <ele>343.5</ele>
        <time>2018-03-04T14:58:15Z</time>
      </trkpt>
      <trkpt lat="43.97639" lon="2.32219">
        <ele>343.8</ele>
        <time>2018-03-04T14:58:22Z</time>
      </trkpt>
      <trkpt lat="43.97633" lon="2.3222">
        <ele>343</ele>
        <time>2018-03-04T14:58:30Z</time>
      </trkpt>
      <trkpt lat="43.97626" lon="2.32224">
        <ele>342.4</ele>
        <time>2018-03-04T14:58:37Z</time>
      </trkpt>
      <trkpt lat="43.97619" lon="2.3223">
        <ele>342</ele>
        <time>2018-03-04T14:58:43Z</time>
      </trkpt>
      <trkpt lat="43.97614" lon="2.32231">
        <ele>341.9</ele>
        <time>2018-03-04T14:58:50Z</time>
      </trkpt>
      <trkpt lat="43.97608" lon="2.32231">
        <ele>341.4</ele>
        <time>2018-03-04T14:58:58Z</time>
      </trkpt>
      <trkpt lat="43.976" lon="2.3223">
        <ele>340.7</ele>
        <time>2018-03-04T14:59:05Z</time>
      </trkpt>
      <trkpt lat="43.97593" lon="2.32233">
        <ele>340.6</ele>
        <time>2018-03-04T14:59:12Z</time>
      </trkpt>
      <trkpt lat="43.97586" lon="2.32236">
        <ele>341.2</ele>
        <time>2018-03-04T14:59:19Z</time>
      </trkpt>
      <trkpt lat="43.97577" lon="2.32236">
        <ele>342.7</ele>
        <time>2018-03-04T14:59:26Z</time>
      </trkpt>
      <trkpt lat="43.97571" lon="2.32241">
        <ele>342.6</ele>
        <time>2018-03-04T14:59:32Z</time>
      </trkpt>
      <trkpt lat="43.97565" lon="2.32238">
        <ele>343.5</ele>
        <time>2018-03-04T14:59:39Z</time>
      </trkpt>
      <trkpt lat="43.97558" lon="2.32237">
        <ele>346.5</ele>
        <time>2018-03-04T14:59:47Z</time>
      </trkpt>
      <trkpt lat="43.97554" lon="2.32249">
        <ele>348.9</ele>
        <time>2018-03-04T14:59:52Z</time>
      </trkpt>
      <trkpt lat="43.97558" lon="2.32258">
        <ele>349.3</ele>
        <time>2018-03-04T14:59:57Z</time>
      </trkpt>
      <trkpt lat="43.97565" lon="2.32264">
        <ele>350.7</ele>
        <time>2018-03-04T15:00:04Z</time>
      </trkpt>
      <trkpt lat="43.97571" lon="2.32266">
        <ele>352.7</ele>
        <time>2018-03-04T15:00:12Z</time>
      </trkpt>
      <trkpt lat="43.97577" lon="2.32264">
        <ele>354.2</ele>
        <time>2018-03-04T15:00:19Z</time>
      </trkpt>
      <trkpt lat="43.97582" lon="2.32266">
        <ele>354.4</ele>
        <time>2018-03-04T15:00:26Z</time>
      </trkpt>
      <trkpt lat="43.97589" lon="2.32271">
        <ele>353.8</ele>
        <time>2018-03-04T15:00:33Z</time>
      </trkpt>
      <trkpt lat="43.97596" lon="2.32276">
        <ele>352.3</ele>
        <time>2018-03-04T15:00:39Z</time>
      </trkpt>
      <trkpt lat="43.97601" lon="2.32283">
        <ele>352</ele>
        <time>2018-03-04T15:00:47Z</time>
      </trkpt>
      <trkpt lat="43.97606" lon="2.32291">
        <ele>351.2</ele>
        <time>2018-03-04T15:00:54Z</time>
      </trkpt>
      <trkpt lat="43.9761" lon="2.323">
        <ele>351.7</ele>
        <time>2018-03-04T15:00:59Z</time>
      </trkpt>
      <trkpt lat="43.97614" lon="2.32308">
        <ele>353.6</ele>
        <time>2018-03-04T15:01:04Z</time>
      </trkpt>
      <trkpt lat="43.97614" lon="2.3232">
        <ele>353.3</ele>
        <time>2018-03-04T15:01:10Z</time>
      </trkpt>
      <trkpt lat="43.97618" lon="2.32329">
        <ele>351.5</ele>
        <time>2018-03-04T15:01:18Z</time>
      </trkpt>
      <trkpt lat="43.97622" lon="2.32337">
        <ele>348.6</ele>
        <time>2018-03-04T15:01:24Z</time>
      </trkpt>
      <trkpt lat="43.97621" lon="2.32346">
        <ele>346.6</ele>
        <time>2018-03-04T15:01:32Z</time>
      </trkpt>
      <trkpt lat="43.97623" lon="2.32353">
        <ele>345.9</ele>
        <time>2018-03-04T15:01:38Z</time>
      </trkpt>
      <trkpt lat="43.9763" lon="2.32359">
        <ele>349.2</ele>
        <time>2018-03-04T15:01:46Z</time>
      </trkpt>
      <trkpt lat="43.97629" lon="2.32367">
        <ele>350.7</ele>
        <time>2018-03-04T15:01:52Z</time>
      </trkpt>
      <trkpt lat="43.97626" lon="2.32376">
        <ele>351.3</ele>
        <time>2018-03-04T15:02:00Z</time>
      </trkpt>
      <trkpt lat="43.97622" lon="2.32386">
        <ele>351</ele>
        <time>2018-03-04T15:02:06Z</time>
      </trkpt>
      <trkpt lat="43.97616" lon="2.32393">
        <ele>350.3</ele>
        <time>2018-03-04T15:02:14Z</time>
      </trkpt>
      <trkpt lat="43.97611" lon="2.324">
        <ele>349.4</ele>
        <time>2018-03-04T15:02:21Z</time>
      </trkpt>
      <trkpt lat="43.97605" lon="2.32406">
        <ele>348.8</ele>
        <time>2018-03-04T15:02:25Z</time>
      </trkpt>
      <trkpt lat="43.97603" lon="2.32416">
        <ele>348.5</ele>
        <time>2018-03-04T15:02:31Z</time>
      </trkpt>
      <trkpt lat="43.976" lon="2.32427">
        <ele>348.5</ele>
        <time>2018-03-04T15:02:37Z</time>
      </trkpt>
      <trkpt lat="43.97599" lon="2.32437">
        <ele>348.1</ele>
        <time>2018-03-04T15:02:43Z</time>
      </trkpt>
      <trkpt lat="43.97596" lon="2.32448">
        <ele>347.4</ele>
        <time>2018-03-04T15:02:50Z</time>
      </trkpt>
      <trkpt lat="43.97594" lon="2.32457">
        <ele>346.4</ele>
        <time>2018-03-04T15:02:56Z</time>
      </trkpt>
      <trkpt lat="43.97591" lon="2.32466">
        <ele>346.2</ele>
        <time>2018-03-04T15:03:04Z</time>
      </trkpt>
      <trkpt lat="43.97587" lon="2.32475">
        <ele>345.4</ele>
        <time>2018-03-04T15:03:08Z</time>
      </trkpt>
      <trkpt lat="43.97583" lon="2.32484">
        <ele>345.5</ele>
        <time>2018-03-04T15:03:14Z</time>
      </trkpt>
      <trkpt lat="43.9758" lon="2.32493">
        <ele>345.7</ele>
        <time>2018-03-04T15:03:21Z</time>
      </trkpt>
      <trkpt lat="43.97576" lon="2.32505">
        <ele>345.9</ele>
        <time>2018-03-04T15:03:26Z</time>
      </trkpt>
      <trkpt lat="43.97572" lon="2.32515">
        <ele>346.4</ele>
        <time>2018-03-04T15:03:31Z</time>
      </trkpt>
      <trkpt lat="43.97571" lon="2.32525">
        <ele>347.5</ele>
        <time>2018-03-04T15:03:36Z</time>
      </trkpt>
      <trkpt lat="43.97571" lon="2.32533">
        <ele>347.8</ele>
        <time>2018-03-04T15:03:43Z</time>
      </trkpt>
      <trkpt lat="43.97567" lon="2.32542">
        <ele>347.5</ele>
        <time>2018-03-04T15:03:50Z</time>
      </trkpt>
      <trkpt lat="43.97561" lon="2.32549">
        <ele>350.1</ele>
        <time>2018-03-04T15:03:56Z</time>
      </trkpt>
      <trkpt lat="43.97557" lon="2.32561">
        <ele>350.2</ele>
        <time>2018-03-04T15:04:03Z</time>
      </trkpt>
      <trkpt lat="43.97555" lon="2.32567">
        <ele>350.2</ele>
        <time>2018-03-04T15:04:10Z</time>
      </trkpt>
      <trkpt lat="43.97546" lon="2.32578">
        <ele>356</ele>
        <time>2018-03-04T15:05:23Z</time>
      </trkpt>
      <trkpt lat="43.97543" lon="2.32586">
        <ele>357.5</ele>
        <time>2018-03-04T15:05:41Z</time>
      </trkpt>
      <trkpt lat="43.9754" lon="2.32589">
        <ele>357.8</ele>
        <time>2018-03-04T15:05:48Z</time>
      </trkpt>
      <trkpt lat="43.97537" lon="2.32594">
        <ele>357.5</ele>
        <time>2018-03-04T15:05:55Z</time>
      </trkpt>
      <trkpt lat="43.97534" lon="2.32599">
        <ele>357.3</ele>
        <time>2018-03-04T15:06:02Z</time>
      </trkpt>
      <trkpt lat="43.97529" lon="2.32607">
        <ele>356.9</ele>
        <time>2018-03-04T15:06:07Z</time>
      </trkpt>
      <trkpt lat="43.97526" lon="2.32616">
        <ele>356.3</ele>
        <time>2018-03-04T15:06:12Z</time>
      </trkpt>
      <trkpt lat="43.9752" lon="2.32625">
        <ele>355.4</ele>
        <time>2018-03-04T15:06:17Z</time>
      </trkpt>
      <trkpt lat="43.97516" lon="2.32635">
        <ele>354.5</ele>
        <time>2018-03-04T15:06:22Z</time>
      </trkpt>
      <trkpt lat="43.97513" lon="2.32644">
        <ele>354</ele>
        <time>2018-03-04T15:06:28Z</time>
      </trkpt>
      <trkpt lat="43.97512" lon="2.32654">
        <ele>353</ele>
        <time>2018-03-04T15:06:35Z</time>
      </trkpt>
      <trkpt lat="43.97509" lon="2.32665">
        <ele>352.9</ele>
        <time>2018-03-04T15:06:41Z</time>
      </trkpt>
      <trkpt lat="43.97507" lon="2.32676">
        <ele>352.4</ele>
        <time>2018-03-04T15:06:48Z</time>
      </trkpt>
      <trkpt lat="43.97504" lon="2.32686">
        <ele>351.5</ele>
        <time>2018-03-04T15:06:55Z</time>
      </trkpt>
      <trkpt lat="43.97503" lon="2.32698">
        <ele>351.3</ele>
        <time>2018-03-04T15:07:00Z</time>
      </trkpt>
      <trkpt lat="43.97502" lon="2.32708">
        <ele>351.3</ele>
        <time>2018-03-04T15:07:06Z</time>
      </trkpt>
      <trkpt lat="43.975" lon="2.32718">
        <ele>351.2</ele>
        <time>2018-03-04T15:07:13Z</time>
      </trkpt>
      <trkpt lat="43.97499" lon="2.32731">
        <ele>350.2</ele>
        <time>2018-03-04T15:07:20Z</time>
      </trkpt>
      <trkpt lat="43.97497" lon="2.32739">
        <ele>349.9</ele>
        <time>2018-03-04T15:07:27Z</time>
      </trkpt>
      <trkpt lat="43.97494" lon="2.32745">
        <ele>349.9</ele>
        <time>2018-03-04T15:07:34Z</time>
      </trkpt>
      <trkpt lat="43.97491" lon="2.32753">
        <ele>349.7</ele>
        <time>2018-03-04T15:07:41Z</time>
      </trkpt>
      <trkpt lat="43.97486" lon="2.32766">
        <ele>350.1</ele>
        <time>2018-03-04T15:07:47Z</time>
      </trkpt>
      <trkpt lat="43.97482" lon="2.32774">
        <ele>350.6</ele>
        <time>2018-03-04T15:07:50Z</time>
      </trkpt>
      <trkpt lat="43.97478" lon="2.32785">
        <ele>350.5</ele>
        <time>2018-03-04T15:07:55Z</time>
      </trkpt>
      <trkpt lat="43.97472" lon="2.32792">
        <ele>350.5</ele>
        <time>2018-03-04T15:08:02Z</time>
      </trkpt>
      <trkpt lat="43.97467" lon="2.32799">
        <ele>349.4</ele>
        <time>2018-03-04T15:08:08Z</time>
      </trkpt>
      <trkpt lat="43.9746" lon="2.32805">
        <ele>348.4</ele>
        <time>2018-03-04T15:08:14Z</time>
      </trkpt>
      <trkpt lat="43.97457" lon="2.32814">
        <ele>347</ele>
        <time>2018-03-04T15:08:20Z</time>
      </trkpt>
      <trkpt lat="43.97451" lon="2.32822">
        <ele>346.5</ele>
        <time>2018-03-04T15:08:24Z</time>
      </trkpt>
      <trkpt lat="43.97444" lon="2.3283">
        <ele>346.1</ele>
        <time>2018-03-04T15:08:30Z</time>
      </trkpt>
      <trkpt lat="43.97437" lon="2.32836">
        <ele>346.6</ele>
        <time>2018-03-04T15:08:34Z</time>
      </trkpt>
      <trkpt lat="43.97429" lon="2.32842">
        <ele>347.5</ele>
        <time>2018-03-04T15:08:40Z</time>
      </trkpt>
      <trkpt lat="43.97426" lon="2.32853">
        <ele>347.8</ele>
        <time>2018-03-04T15:08:45Z</time>
      </trkpt>
      <trkpt lat="43.97422" lon="2.32857">
        <ele>350.5</ele>
        <time>2018-03-04T15:08:52Z</time>
      </trkpt>
      <trkpt lat="43.97425" lon="2.32866">
        <ele>351.1</ele>
        <time>2018-03-04T15:08:59Z</time>
      </trkpt>
      <trkpt lat="43.97428" lon="2.32876">
        <ele>351</ele>
        <time>2018-03-04T15:09:05Z</time>
      </trkpt>
      <trkpt lat="43.97429" lon="2.32887">
        <ele>351.8</ele>
        <time>2018-03-04T15:09:12Z</time>
      </trkpt>
      <trkpt lat="43.97432" lon="2.32897">
        <ele>352.2</ele>
        <time>2018-03-04T15:09:18Z</time>
      </trkpt>
      <trkpt lat="43.97436" lon="2.32905">
        <ele>352.9</ele>
        <time>2018-03-04T15:09:22Z</time>
      </trkpt>
      <trkpt lat="43.97439" lon="2.32913">
        <ele>354.4</ele>
        <time>2018-03-04T15:09:29Z</time>
      </trkpt>
      <trkpt lat="43.97435" lon="2.32918">
        <ele>357.3</ele>
        <time>2018-03-04T15:09:36Z</time>
      </trkpt>
      <trkpt lat="43.97432" lon="2.32927">
        <ele>357.2</ele>
        <time>2018-03-04T15:09:43Z</time>
      </trkpt>
      <trkpt lat="43.97427" lon="2.32936">
        <ele>357.4</ele>
        <time>2018-03-04T15:09:49Z</time>
      </trkpt>
      <trkpt lat="43.97425" lon="2.32949">
        <ele>357.9</ele>
        <time>2018-03-04T15:09:54Z</time>
      </trkpt>
      <trkpt lat="43.9742" lon="2.32957">
        <ele>358</ele>
        <time>2018-03-04T15:10:01Z</time>
      </trkpt>
      <trkpt lat="43.97419" lon="2.32966">
        <ele>358.6</ele>
        <time>2018-03-04T15:10:08Z</time>
      </trkpt>
      <trkpt lat="43.97415" lon="2.32974">
        <ele>358.6</ele>
        <time>2018-03-04T15:10:14Z</time>
      </trkpt>
      <trkpt lat="43.97413" lon="2.32984">
        <ele>358.4</ele>
        <time>2018-03-04T15:10:20Z</time>
      </trkpt>
      <trkpt lat="43.9741" lon="2.32993">
        <ele>357.6</ele>
        <time>2018-03-04T15:10:27Z</time>
      </trkpt>
      <trkpt lat="43.97406" lon="2.33004">
        <ele>357.4</ele>
        <time>2018-03-04T15:10:33Z</time>
      </trkpt>
      <trkpt lat="43.97406" lon="2.33015">
        <ele>356.6</ele>
        <time>2018-03-04T15:10:40Z</time>
      </trkpt>
      <trkpt lat="43.97404" lon="2.33025">
        <ele>357.1</ele>
        <time>2018-03-04T15:10:47Z</time>
      </trkpt>
      <trkpt lat="43.97403" lon="2.33035">
        <ele>358.6</ele>
        <time>2018-03-04T15:10:54Z</time>
      </trkpt>
    </trkseg>
  </trk>
</gpx>